<?xml version="1.0" encoding="UTF-8" standalone="no" ?>
<gpx xmlns="http://www.topografix.com/GPX/1/1" xmlns:xsi="http://www.w3.org/2001/XMLSchema-instance" xsi:schemaLocation="http://www.topografix.com/GPX/1/1 http://www.topografix.com/GPX/1/1/gpx.xsd" version="1.1" creator="VisuGPX - https://www.visugpx.com">
  <metadata>
    <name>tour du dolmen</name>
    <desc><![CDATA[tour en Vtt depart dolmen puis velo route]]></desc>
  </metadata>
  <trk>
    <name><![CDATA[tour du dolmen_1]]></name>
    <trkseg>
      <trkpt lat="47.40637" lon="6.50413">
        <ele>365.2</ele>
        <time>2013-02-21T09:12:26Z</time>
      </trkpt>
      <trkpt lat="47.40622" lon="6.50435">
        <ele>364.2</ele>
        <time>2013-02-21T09:12:31Z</time>
      </trkpt>
      <trkpt lat="47.40612" lon="6.5045">
        <ele>364.2</ele>
        <time>2013-02-21T09:12:36Z</time>
      </trkpt>
      <trkpt lat="47.40598" lon="6.50473">
        <ele>363.2</ele>
        <time>2013-02-21T09:12:41Z</time>
      </trkpt>
      <trkpt lat="47.40585" lon="6.50497">
        <ele>364.2</ele>
        <time>2013-02-21T09:12:46Z</time>
      </trkpt>
      <trkpt lat="47.4057" lon="6.5052">
        <ele>361.8</ele>
        <time>2013-02-21T09:12:51Z</time>
      </trkpt>
      <trkpt lat="47.40552" lon="6.50543">
        <ele>360.4</ele>
        <time>2013-02-21T09:12:56Z</time>
      </trkpt>
      <trkpt lat="47.40528" lon="6.50572">
        <ele>357.7</ele>
        <time>2013-02-21T09:13:01Z</time>
      </trkpt>
      <trkpt lat="47.40498" lon="6.50607">
        <ele>354.1</ele>
        <time>2013-02-21T09:13:06Z</time>
      </trkpt>
      <trkpt lat="47.40467" lon="6.50643">
        <ele>350.6</ele>
        <time>2013-02-21T09:13:11Z</time>
      </trkpt>
      <trkpt lat="47.40438" lon="6.50677">
        <ele>346.8</ele>
        <time>2013-02-21T09:13:16Z</time>
      </trkpt>
      <trkpt lat="47.40407" lon="6.50713">
        <ele>345.3</ele>
        <time>2013-02-21T09:13:21Z</time>
      </trkpt>
      <trkpt lat="47.40367" lon="6.50708">
        <ele>342.2</ele>
        <time>2013-02-21T09:13:26Z</time>
      </trkpt>
      <trkpt lat="47.40338" lon="6.50683">
        <ele>340</ele>
        <time>2013-02-21T09:13:31Z</time>
      </trkpt>
      <trkpt lat="47.40317" lon="6.50672">
        <ele>339.8</ele>
        <time>2013-02-21T09:13:36Z</time>
      </trkpt>
      <trkpt lat="47.40308" lon="6.50668">
        <ele>340.8</ele>
        <time>2013-02-21T09:13:41Z</time>
      </trkpt>
      <trkpt lat="47.40305" lon="6.5068">
        <ele>340</ele>
        <time>2013-02-21T09:13:46Z</time>
      </trkpt>
      <trkpt lat="47.40313" lon="6.50693">
        <ele>339</ele>
        <time>2013-02-21T09:13:51Z</time>
      </trkpt>
      <trkpt lat="47.40322" lon="6.50708">
        <ele>338.8</ele>
        <time>2013-02-21T09:13:56Z</time>
      </trkpt>
      <trkpt lat="47.40332" lon="6.50723">
        <ele>338.3</ele>
        <time>2013-02-21T09:14:01Z</time>
      </trkpt>
      <trkpt lat="47.40342" lon="6.5074">
        <ele>337.7</ele>
        <time>2013-02-21T09:14:06Z</time>
      </trkpt>
      <trkpt lat="47.40352" lon="6.50757">
        <ele>338.2</ele>
        <time>2013-02-21T09:14:11Z</time>
      </trkpt>
      <trkpt lat="47.40358" lon="6.50777">
        <ele>338.9</ele>
        <time>2013-02-21T09:14:16Z</time>
      </trkpt>
      <trkpt lat="47.4036" lon="6.50803">
        <ele>338</ele>
        <time>2013-02-21T09:14:21Z</time>
      </trkpt>
      <trkpt lat="47.40353" lon="6.5085">
        <ele>332.3</ele>
        <time>2013-02-21T09:14:26Z</time>
      </trkpt>
      <trkpt lat="47.4034" lon="6.50888">
        <ele>331.4</ele>
        <time>2013-02-21T09:14:31Z</time>
      </trkpt>
      <trkpt lat="47.4033" lon="6.5092">
        <ele>331</ele>
        <time>2013-02-21T09:14:36Z</time>
      </trkpt>
      <trkpt lat="47.40322" lon="6.50947">
        <ele>332</ele>
        <time>2013-02-21T09:14:41Z</time>
      </trkpt>
      <trkpt lat="47.40312" lon="6.50972">
        <ele>331.8</ele>
        <time>2013-02-21T09:14:46Z</time>
      </trkpt>
      <trkpt lat="47.40303" lon="6.50995">
        <ele>332.8</ele>
        <time>2013-02-21T09:14:51Z</time>
      </trkpt>
      <trkpt lat="47.40298" lon="6.51013">
        <ele>332.4</ele>
        <time>2013-02-21T09:14:56Z</time>
      </trkpt>
      <trkpt lat="47.40305" lon="6.51022">
        <ele>331.9</ele>
        <time>2013-02-21T09:15:01Z</time>
      </trkpt>
      <trkpt lat="47.40315" lon="6.51028">
        <ele>332.4</ele>
        <time>2013-02-21T09:15:06Z</time>
      </trkpt>
      <trkpt lat="47.40325" lon="6.51035">
        <ele>333.4</ele>
        <time>2013-02-21T09:15:11Z</time>
      </trkpt>
      <trkpt lat="47.40335" lon="6.51043">
        <ele>333.1</ele>
        <time>2013-02-21T09:15:16Z</time>
      </trkpt>
      <trkpt lat="47.40347" lon="6.51052">
        <ele>333.7</ele>
        <time>2013-02-21T09:15:21Z</time>
      </trkpt>
      <trkpt lat="47.40358" lon="6.51058">
        <ele>333.7</ele>
        <time>2013-02-21T09:15:26Z</time>
      </trkpt>
      <trkpt lat="47.4037" lon="6.51067">
        <ele>332.9</ele>
        <time>2013-02-21T09:15:31Z</time>
      </trkpt>
      <trkpt lat="47.40382" lon="6.51073">
        <ele>332.9</ele>
        <time>2013-02-21T09:15:36Z</time>
      </trkpt>
      <trkpt lat="47.40393" lon="6.5108">
        <ele>333.1</ele>
        <time>2013-02-21T09:15:41Z</time>
      </trkpt>
      <trkpt lat="47.40403" lon="6.51087">
        <ele>332.9</ele>
        <time>2013-02-21T09:15:46Z</time>
      </trkpt>
      <trkpt lat="47.40417" lon="6.51092">
        <ele>333.1</ele>
        <time>2013-02-21T09:15:51Z</time>
      </trkpt>
      <trkpt lat="47.4043" lon="6.51097">
        <ele>332.5</ele>
        <time>2013-02-21T09:15:56Z</time>
      </trkpt>
      <trkpt lat="47.40442" lon="6.511">
        <ele>332.8</ele>
        <time>2013-02-21T09:16:01Z</time>
      </trkpt>
      <trkpt lat="47.40453" lon="6.51103">
        <ele>332.8</ele>
        <time>2013-02-21T09:16:06Z</time>
      </trkpt>
      <trkpt lat="47.40467" lon="6.51107">
        <ele>333</ele>
        <time>2013-02-21T09:16:11Z</time>
      </trkpt>
      <trkpt lat="47.40477" lon="6.51108">
        <ele>332.3</ele>
        <time>2013-02-21T09:16:16Z</time>
      </trkpt>
      <trkpt lat="47.40487" lon="6.5111">
        <ele>333.1</ele>
        <time>2013-02-21T09:16:21Z</time>
      </trkpt>
      <trkpt lat="47.40497" lon="6.51112">
        <ele>332.9</ele>
        <time>2013-02-21T09:16:26Z</time>
      </trkpt>
      <trkpt lat="47.40508" lon="6.51113">
        <ele>333.3</ele>
        <time>2013-02-21T09:16:31Z</time>
      </trkpt>
      <trkpt lat="47.4052" lon="6.51113">
        <ele>332.4</ele>
        <time>2013-02-21T09:16:36Z</time>
      </trkpt>
      <trkpt lat="47.40533" lon="6.51113">
        <ele>332.9</ele>
        <time>2013-02-21T09:16:41Z</time>
      </trkpt>
      <trkpt lat="47.40547" lon="6.51112">
        <ele>332.4</ele>
        <time>2013-02-21T09:16:46Z</time>
      </trkpt>
      <trkpt lat="47.4056" lon="6.5111">
        <ele>332.4</ele>
        <time>2013-02-21T09:16:51Z</time>
      </trkpt>
      <trkpt lat="47.40573" lon="6.5111">
        <ele>332.3</ele>
        <time>2013-02-21T09:16:56Z</time>
      </trkpt>
      <trkpt lat="47.40588" lon="6.5111">
        <ele>332.5</ele>
        <time>2013-02-21T09:17:01Z</time>
      </trkpt>
      <trkpt lat="47.406" lon="6.51112">
        <ele>332.5</ele>
        <time>2013-02-21T09:17:06Z</time>
      </trkpt>
      <trkpt lat="47.40615" lon="6.51112">
        <ele>332.5</ele>
        <time>2013-02-21T09:17:11Z</time>
      </trkpt>
      <trkpt lat="47.40628" lon="6.51112">
        <ele>333.2</ele>
        <time>2013-02-21T09:17:16Z</time>
      </trkpt>
      <trkpt lat="47.40642" lon="6.51113">
        <ele>332.5</ele>
        <time>2013-02-21T09:17:21Z</time>
      </trkpt>
      <trkpt lat="47.40657" lon="6.51113">
        <ele>332.8</ele>
        <time>2013-02-21T09:17:26Z</time>
      </trkpt>
      <trkpt lat="47.40667" lon="6.51115">
        <ele>332.7</ele>
        <time>2013-02-21T09:17:31Z</time>
      </trkpt>
      <trkpt lat="47.40675" lon="6.51117">
        <ele>332.3</ele>
        <time>2013-02-21T09:17:36Z</time>
      </trkpt>
      <trkpt lat="47.40683" lon="6.51118">
        <ele>333.2</ele>
        <time>2013-02-21T09:17:41Z</time>
      </trkpt>
      <trkpt lat="47.40693" lon="6.5112">
        <ele>332.7</ele>
        <time>2013-02-21T09:17:46Z</time>
      </trkpt>
      <trkpt lat="47.40703" lon="6.51122">
        <ele>333.7</ele>
        <time>2013-02-21T09:17:51Z</time>
      </trkpt>
      <trkpt lat="47.40715" lon="6.51122">
        <ele>333</ele>
        <time>2013-02-21T09:17:56Z</time>
      </trkpt>
      <trkpt lat="47.40727" lon="6.51122">
        <ele>332.4</ele>
        <time>2013-02-21T09:18:01Z</time>
      </trkpt>
      <trkpt lat="47.40738" lon="6.51123">
        <ele>332.3</ele>
        <time>2013-02-21T09:18:06Z</time>
      </trkpt>
      <trkpt lat="47.4075" lon="6.51125">
        <ele>331.2</ele>
        <time>2013-02-21T09:18:11Z</time>
      </trkpt>
      <trkpt lat="47.40762" lon="6.51127">
        <ele>331.9</ele>
        <time>2013-02-21T09:18:16Z</time>
      </trkpt>
      <trkpt lat="47.40773" lon="6.51127">
        <ele>331.8</ele>
        <time>2013-02-21T09:18:21Z</time>
      </trkpt>
      <trkpt lat="47.40785" lon="6.51125">
        <ele>330.7</ele>
        <time>2013-02-21T09:18:26Z</time>
      </trkpt>
      <trkpt lat="47.40797" lon="6.51127">
        <ele>331.6</ele>
        <time>2013-02-21T09:18:31Z</time>
      </trkpt>
      <trkpt lat="47.40808" lon="6.51128">
        <ele>331.8</ele>
        <time>2013-02-21T09:18:36Z</time>
      </trkpt>
      <trkpt lat="47.4082" lon="6.51128">
        <ele>332.6</ele>
        <time>2013-02-21T09:18:41Z</time>
      </trkpt>
      <trkpt lat="47.40832" lon="6.5113">
        <ele>333.2</ele>
        <time>2013-02-21T09:18:46Z</time>
      </trkpt>
      <trkpt lat="47.40845" lon="6.51132">
        <ele>333.2</ele>
        <time>2013-02-21T09:18:51Z</time>
      </trkpt>
      <trkpt lat="47.40857" lon="6.51133">
        <ele>332.9</ele>
        <time>2013-02-21T09:18:56Z</time>
      </trkpt>
      <trkpt lat="47.4087" lon="6.51135">
        <ele>332.7</ele>
        <time>2013-02-21T09:19:01Z</time>
      </trkpt>
      <trkpt lat="47.40882" lon="6.51137">
        <ele>332.7</ele>
        <time>2013-02-21T09:19:06Z</time>
      </trkpt>
      <trkpt lat="47.40895" lon="6.51138">
        <ele>332.7</ele>
        <time>2013-02-21T09:19:11Z</time>
      </trkpt>
      <trkpt lat="47.40907" lon="6.51138">
        <ele>332.4</ele>
        <time>2013-02-21T09:19:16Z</time>
      </trkpt>
      <trkpt lat="47.4092" lon="6.5114">
        <ele>333.5</ele>
        <time>2013-02-21T09:19:21Z</time>
      </trkpt>
      <trkpt lat="47.40932" lon="6.51142">
        <ele>333.5</ele>
        <time>2013-02-21T09:19:26Z</time>
      </trkpt>
      <trkpt lat="47.40945" lon="6.51143">
        <ele>333.3</ele>
        <time>2013-02-21T09:19:31Z</time>
      </trkpt>
      <trkpt lat="47.40958" lon="6.51143">
        <ele>333.6</ele>
        <time>2013-02-21T09:19:36Z</time>
      </trkpt>
      <trkpt lat="47.40973" lon="6.51147">
        <ele>333.1</ele>
        <time>2013-02-21T09:19:41Z</time>
      </trkpt>
      <trkpt lat="47.40987" lon="6.51147">
        <ele>333.1</ele>
        <time>2013-02-21T09:19:46Z</time>
      </trkpt>
      <trkpt lat="47.41002" lon="6.51147">
        <ele>332.6</ele>
        <time>2013-02-21T09:19:51Z</time>
      </trkpt>
      <trkpt lat="47.41015" lon="6.51147">
        <ele>332.6</ele>
        <time>2013-02-21T09:19:56Z</time>
      </trkpt>
      <trkpt lat="47.41028" lon="6.5115">
        <ele>332.3</ele>
        <time>2013-02-21T09:20:01Z</time>
      </trkpt>
      <trkpt lat="47.41042" lon="6.51152">
        <ele>332.6</ele>
        <time>2013-02-21T09:20:06Z</time>
      </trkpt>
      <trkpt lat="47.41053" lon="6.51155">
        <ele>333.3</ele>
        <time>2013-02-21T09:20:11Z</time>
      </trkpt>
      <trkpt lat="47.41068" lon="6.51157">
        <ele>333.4</ele>
        <time>2013-02-21T09:20:16Z</time>
      </trkpt>
      <trkpt lat="47.4108" lon="6.51158">
        <ele>332.4</ele>
        <time>2013-02-21T09:20:21Z</time>
      </trkpt>
      <trkpt lat="47.41093" lon="6.51162">
        <ele>332.1</ele>
        <time>2013-02-21T09:20:26Z</time>
      </trkpt>
      <trkpt lat="47.41107" lon="6.51163">
        <ele>331.6</ele>
        <time>2013-02-21T09:20:31Z</time>
      </trkpt>
      <trkpt lat="47.41118" lon="6.51165">
        <ele>332.7</ele>
        <time>2013-02-21T09:20:36Z</time>
      </trkpt>
      <trkpt lat="47.41133" lon="6.51168">
        <ele>332.2</ele>
        <time>2013-02-21T09:20:41Z</time>
      </trkpt>
      <trkpt lat="47.41147" lon="6.51172">
        <ele>331.5</ele>
        <time>2013-02-21T09:20:46Z</time>
      </trkpt>
      <trkpt lat="47.4116" lon="6.51177">
        <ele>331.2</ele>
        <time>2013-02-21T09:20:51Z</time>
      </trkpt>
      <trkpt lat="47.41173" lon="6.51178">
        <ele>332.1</ele>
        <time>2013-02-21T09:20:56Z</time>
      </trkpt>
      <trkpt lat="47.41187" lon="6.51183">
        <ele>331.9</ele>
        <time>2013-02-21T09:21:01Z</time>
      </trkpt>
      <trkpt lat="47.41202" lon="6.51188">
        <ele>332.9</ele>
        <time>2013-02-21T09:21:06Z</time>
      </trkpt>
      <trkpt lat="47.41215" lon="6.51193">
        <ele>333.2</ele>
        <time>2013-02-21T09:21:11Z</time>
      </trkpt>
      <trkpt lat="47.41223" lon="6.51195">
        <ele>332.6</ele>
        <time>2013-02-21T09:21:16Z</time>
      </trkpt>
      <trkpt lat="47.41238" lon="6.51197">
        <ele>332.5</ele>
        <time>2013-02-21T09:21:21Z</time>
      </trkpt>
      <trkpt lat="47.41252" lon="6.51202">
        <ele>333.1</ele>
        <time>2013-02-21T09:21:26Z</time>
      </trkpt>
      <trkpt lat="47.41265" lon="6.51205">
        <ele>332.8</ele>
        <time>2013-02-21T09:21:31Z</time>
      </trkpt>
      <trkpt lat="47.41278" lon="6.5121">
        <ele>331.7</ele>
        <time>2013-02-21T09:21:36Z</time>
      </trkpt>
      <trkpt lat="47.41292" lon="6.5121">
        <ele>333.4</ele>
        <time>2013-02-21T09:21:41Z</time>
      </trkpt>
      <trkpt lat="47.41303" lon="6.51213">
        <ele>332.6</ele>
        <time>2013-02-21T09:21:46Z</time>
      </trkpt>
      <trkpt lat="47.41315" lon="6.5122">
        <ele>332.6</ele>
        <time>2013-02-21T09:21:51Z</time>
      </trkpt>
      <trkpt lat="47.41327" lon="6.51225">
        <ele>333</ele>
        <time>2013-02-21T09:21:56Z</time>
      </trkpt>
      <trkpt lat="47.41338" lon="6.51232">
        <ele>332.6</ele>
        <time>2013-02-21T09:22:01Z</time>
      </trkpt>
      <trkpt lat="47.4135" lon="6.51237">
        <ele>331</ele>
        <time>2013-02-21T09:22:06Z</time>
      </trkpt>
      <trkpt lat="47.41362" lon="6.51245">
        <ele>330.6</ele>
        <time>2013-02-21T09:22:11Z</time>
      </trkpt>
      <trkpt lat="47.41372" lon="6.5125">
        <ele>331.4</ele>
        <time>2013-02-21T09:22:16Z</time>
      </trkpt>
      <trkpt lat="47.41383" lon="6.51257">
        <ele>332.3</ele>
        <time>2013-02-21T09:22:21Z</time>
      </trkpt>
      <trkpt lat="47.41397" lon="6.51262">
        <ele>333</ele>
        <time>2013-02-21T09:22:26Z</time>
      </trkpt>
      <trkpt lat="47.4141" lon="6.51267">
        <ele>333</ele>
        <time>2013-02-21T09:22:31Z</time>
      </trkpt>
      <trkpt lat="47.41422" lon="6.51275">
        <ele>332.7</ele>
        <time>2013-02-21T09:22:36Z</time>
      </trkpt>
      <trkpt lat="47.41433" lon="6.51285">
        <ele>332.9</ele>
        <time>2013-02-21T09:22:41Z</time>
      </trkpt>
      <trkpt lat="47.41443" lon="6.51293">
        <ele>332.1</ele>
        <time>2013-02-21T09:22:46Z</time>
      </trkpt>
      <trkpt lat="47.41455" lon="6.51303">
        <ele>333.2</ele>
        <time>2013-02-21T09:22:51Z</time>
      </trkpt>
      <trkpt lat="47.41467" lon="6.51313">
        <ele>333</ele>
        <time>2013-02-21T09:22:56Z</time>
      </trkpt>
      <trkpt lat="47.41477" lon="6.51323">
        <ele>333.2</ele>
        <time>2013-02-21T09:23:01Z</time>
      </trkpt>
      <trkpt lat="47.41488" lon="6.51337">
        <ele>333.3</ele>
        <time>2013-02-21T09:23:06Z</time>
      </trkpt>
      <trkpt lat="47.415" lon="6.51348">
        <ele>332.7</ele>
        <time>2013-02-21T09:23:11Z</time>
      </trkpt>
      <trkpt lat="47.4151" lon="6.51363">
        <ele>333.2</ele>
        <time>2013-02-21T09:23:16Z</time>
      </trkpt>
      <trkpt lat="47.4152" lon="6.51378">
        <ele>332.5</ele>
        <time>2013-02-21T09:23:21Z</time>
      </trkpt>
      <trkpt lat="47.41528" lon="6.51393">
        <ele>332.6</ele>
        <time>2013-02-21T09:23:26Z</time>
      </trkpt>
      <trkpt lat="47.41538" lon="6.51408">
        <ele>332.7</ele>
        <time>2013-02-21T09:23:31Z</time>
      </trkpt>
      <trkpt lat="47.41547" lon="6.51423">
        <ele>333.5</ele>
        <time>2013-02-21T09:23:36Z</time>
      </trkpt>
      <trkpt lat="47.41555" lon="6.5144">
        <ele>332.5</ele>
        <time>2013-02-21T09:23:41Z</time>
      </trkpt>
      <trkpt lat="47.41563" lon="6.51458">
        <ele>333</ele>
        <time>2013-02-21T09:23:46Z</time>
      </trkpt>
      <trkpt lat="47.41572" lon="6.51472">
        <ele>331.9</ele>
        <time>2013-02-21T09:23:51Z</time>
      </trkpt>
      <trkpt lat="47.4158" lon="6.51488">
        <ele>332.5</ele>
        <time>2013-02-21T09:23:56Z</time>
      </trkpt>
      <trkpt lat="47.41588" lon="6.51503">
        <ele>332.9</ele>
        <time>2013-02-21T09:24:01Z</time>
      </trkpt>
      <trkpt lat="47.41597" lon="6.51518">
        <ele>333.9</ele>
        <time>2013-02-21T09:24:06Z</time>
      </trkpt>
      <trkpt lat="47.41607" lon="6.51532">
        <ele>332.7</ele>
        <time>2013-02-21T09:24:11Z</time>
      </trkpt>
      <trkpt lat="47.41615" lon="6.51545">
        <ele>331.6</ele>
        <time>2013-02-21T09:24:16Z</time>
      </trkpt>
      <trkpt lat="47.41625" lon="6.51562">
        <ele>331.5</ele>
        <time>2013-02-21T09:24:21Z</time>
      </trkpt>
      <trkpt lat="47.41632" lon="6.51578">
        <ele>332.3</ele>
        <time>2013-02-21T09:24:26Z</time>
      </trkpt>
      <trkpt lat="47.41638" lon="6.51597">
        <ele>331.8</ele>
        <time>2013-02-21T09:24:31Z</time>
      </trkpt>
      <trkpt lat="47.41643" lon="6.51613">
        <ele>330.6</ele>
        <time>2013-02-21T09:24:36Z</time>
      </trkpt>
      <trkpt lat="47.41648" lon="6.51633">
        <ele>331.4</ele>
        <time>2013-02-21T09:24:41Z</time>
      </trkpt>
      <trkpt lat="47.41652" lon="6.51652">
        <ele>333</ele>
        <time>2013-02-21T09:24:46Z</time>
      </trkpt>
      <trkpt lat="47.41657" lon="6.5167">
        <ele>332.6</ele>
        <time>2013-02-21T09:24:51Z</time>
      </trkpt>
      <trkpt lat="47.4166" lon="6.51688">
        <ele>331.6</ele>
        <time>2013-02-21T09:24:56Z</time>
      </trkpt>
      <trkpt lat="47.41663" lon="6.51708">
        <ele>334.7</ele>
        <time>2013-02-21T09:25:01Z</time>
      </trkpt>
      <trkpt lat="47.41667" lon="6.5173">
        <ele>333.1</ele>
        <time>2013-02-21T09:25:06Z</time>
      </trkpt>
      <trkpt lat="47.4167" lon="6.5175">
        <ele>332.4</ele>
        <time>2013-02-21T09:25:11Z</time>
      </trkpt>
      <trkpt lat="47.4167" lon="6.5177">
        <ele>333.2</ele>
        <time>2013-02-21T09:25:16Z</time>
      </trkpt>
      <trkpt lat="47.41668" lon="6.5179">
        <ele>332.2</ele>
        <time>2013-02-21T09:25:21Z</time>
      </trkpt>
      <trkpt lat="47.41668" lon="6.51812">
        <ele>332.5</ele>
        <time>2013-02-21T09:25:26Z</time>
      </trkpt>
      <trkpt lat="47.41665" lon="6.51832">
        <ele>332.7</ele>
        <time>2013-02-21T09:25:31Z</time>
      </trkpt>
      <trkpt lat="47.41663" lon="6.51853">
        <ele>332.6</ele>
        <time>2013-02-21T09:25:36Z</time>
      </trkpt>
      <trkpt lat="47.4166" lon="6.51873">
        <ele>333</ele>
        <time>2013-02-21T09:25:41Z</time>
      </trkpt>
      <trkpt lat="47.41657" lon="6.51893">
        <ele>332</ele>
        <time>2013-02-21T09:25:46Z</time>
      </trkpt>
      <trkpt lat="47.41655" lon="6.51913">
        <ele>331.4</ele>
        <time>2013-02-21T09:25:51Z</time>
      </trkpt>
      <trkpt lat="47.4165" lon="6.51938">
        <ele>332.4</ele>
        <time>2013-02-21T09:25:56Z</time>
      </trkpt>
      <trkpt lat="47.41647" lon="6.51957">
        <ele>332.4</ele>
        <time>2013-02-21T09:26:01Z</time>
      </trkpt>
      <trkpt lat="47.41642" lon="6.5198">
        <ele>332</ele>
        <time>2013-02-21T09:26:06Z</time>
      </trkpt>
      <trkpt lat="47.4164" lon="6.51998">
        <ele>333</ele>
        <time>2013-02-21T09:26:11Z</time>
      </trkpt>
      <trkpt lat="47.41638" lon="6.52013">
        <ele>333.9</ele>
        <time>2013-02-21T09:26:16Z</time>
      </trkpt>
      <trkpt lat="47.41635" lon="6.52033">
        <ele>333.8</ele>
        <time>2013-02-21T09:26:21Z</time>
      </trkpt>
      <trkpt lat="47.41635" lon="6.5205">
        <ele>334.3</ele>
        <time>2013-02-21T09:26:26Z</time>
      </trkpt>
      <trkpt lat="47.41633" lon="6.52062">
        <ele>335.4</ele>
        <time>2013-02-21T09:26:31Z</time>
      </trkpt>
      <trkpt lat="47.4163" lon="6.52077">
        <ele>334.8</ele>
        <time>2013-02-21T09:26:36Z</time>
      </trkpt>
      <trkpt lat="47.41632" lon="6.52075">
        <ele>333.8</ele>
        <time>2013-02-21T09:26:41Z</time>
      </trkpt>
      <trkpt lat="47.41632" lon="6.52088">
        <ele>335.5</ele>
        <time>2013-02-21T09:26:46Z</time>
      </trkpt>
      <trkpt lat="47.41632" lon="6.52105">
        <ele>335.2</ele>
        <time>2013-02-21T09:26:51Z</time>
      </trkpt>
      <trkpt lat="47.41632" lon="6.5212">
        <ele>337.3</ele>
        <time>2013-02-21T09:26:56Z</time>
      </trkpt>
      <trkpt lat="47.41635" lon="6.52137">
        <ele>335.5</ele>
        <time>2013-02-21T09:27:01Z</time>
      </trkpt>
      <trkpt lat="47.41633" lon="6.52155">
        <ele>334.6</ele>
        <time>2013-02-21T09:27:06Z</time>
      </trkpt>
      <trkpt lat="47.41635" lon="6.52173">
        <ele>335.3</ele>
        <time>2013-02-21T09:27:11Z</time>
      </trkpt>
      <trkpt lat="47.41635" lon="6.52188">
        <ele>333.4</ele>
        <time>2013-02-21T09:27:16Z</time>
      </trkpt>
      <trkpt lat="47.41635" lon="6.52202">
        <ele>333.5</ele>
        <time>2013-02-21T09:27:21Z</time>
      </trkpt>
      <trkpt lat="47.41635" lon="6.52218">
        <ele>333.6</ele>
        <time>2013-02-21T09:27:26Z</time>
      </trkpt>
      <trkpt lat="47.41635" lon="6.52233">
        <ele>333.7</ele>
        <time>2013-02-21T09:27:31Z</time>
      </trkpt>
      <trkpt lat="47.41633" lon="6.5225">
        <ele>334.9</ele>
        <time>2013-02-21T09:27:36Z</time>
      </trkpt>
      <trkpt lat="47.41633" lon="6.52267">
        <ele>333.7</ele>
        <time>2013-02-21T09:27:41Z</time>
      </trkpt>
      <trkpt lat="47.41635" lon="6.52285">
        <ele>335</ele>
        <time>2013-02-21T09:27:46Z</time>
      </trkpt>
      <trkpt lat="47.41633" lon="6.52303">
        <ele>334</ele>
        <time>2013-02-21T09:27:51Z</time>
      </trkpt>
      <trkpt lat="47.41633" lon="6.5232">
        <ele>335.3</ele>
        <time>2013-02-21T09:27:56Z</time>
      </trkpt>
      <trkpt lat="47.41633" lon="6.52337">
        <ele>333.9</ele>
        <time>2013-02-21T09:28:01Z</time>
      </trkpt>
      <trkpt lat="47.41633" lon="6.52353">
        <ele>332.9</ele>
        <time>2013-02-21T09:28:06Z</time>
      </trkpt>
      <trkpt lat="47.41633" lon="6.5237">
        <ele>335.1</ele>
        <time>2013-02-21T09:28:11Z</time>
      </trkpt>
      <trkpt lat="47.41632" lon="6.52388">
        <ele>333.1</ele>
        <time>2013-02-21T09:28:16Z</time>
      </trkpt>
      <trkpt lat="47.41632" lon="6.52407">
        <ele>334.3</ele>
        <time>2013-02-21T09:28:21Z</time>
      </trkpt>
      <trkpt lat="47.41632" lon="6.52423">
        <ele>333.9</ele>
        <time>2013-02-21T09:28:26Z</time>
      </trkpt>
      <trkpt lat="47.4163" lon="6.5244">
        <ele>332.9</ele>
        <time>2013-02-21T09:28:31Z</time>
      </trkpt>
      <trkpt lat="47.4163" lon="6.52457">
        <ele>333</ele>
        <time>2013-02-21T09:28:36Z</time>
      </trkpt>
      <trkpt lat="47.4163" lon="6.52473">
        <ele>332.5</ele>
        <time>2013-02-21T09:28:41Z</time>
      </trkpt>
      <trkpt lat="47.4163" lon="6.52492">
        <ele>333.9</ele>
        <time>2013-02-21T09:28:46Z</time>
      </trkpt>
      <trkpt lat="47.41628" lon="6.5251">
        <ele>333.5</ele>
        <time>2013-02-21T09:28:51Z</time>
      </trkpt>
      <trkpt lat="47.41627" lon="6.52528">
        <ele>332.9</ele>
        <time>2013-02-21T09:28:56Z</time>
      </trkpt>
      <trkpt lat="47.41627" lon="6.52545">
        <ele>332.9</ele>
        <time>2013-02-21T09:29:01Z</time>
      </trkpt>
      <trkpt lat="47.41627" lon="6.52562">
        <ele>332.5</ele>
        <time>2013-02-21T09:29:06Z</time>
      </trkpt>
      <trkpt lat="47.41627" lon="6.5258">
        <ele>334.2</ele>
        <time>2013-02-21T09:29:11Z</time>
      </trkpt>
      <trkpt lat="47.41627" lon="6.52597">
        <ele>334.1</ele>
        <time>2013-02-21T09:29:16Z</time>
      </trkpt>
      <trkpt lat="47.41625" lon="6.52613">
        <ele>332.3</ele>
        <time>2013-02-21T09:29:21Z</time>
      </trkpt>
      <trkpt lat="47.41627" lon="6.52628">
        <ele>332.8</ele>
        <time>2013-02-21T09:29:26Z</time>
      </trkpt>
      <trkpt lat="47.41627" lon="6.52643">
        <ele>333.2</ele>
        <time>2013-02-21T09:29:31Z</time>
      </trkpt>
      <trkpt lat="47.41627" lon="6.5266">
        <ele>333</ele>
        <time>2013-02-21T09:29:36Z</time>
      </trkpt>
      <trkpt lat="47.41627" lon="6.52675">
        <ele>333.7</ele>
        <time>2013-02-21T09:29:41Z</time>
      </trkpt>
      <trkpt lat="47.41627" lon="6.5269">
        <ele>333.6</ele>
        <time>2013-02-21T09:29:46Z</time>
      </trkpt>
      <trkpt lat="47.41625" lon="6.52707">
        <ele>333.1</ele>
        <time>2013-02-21T09:29:51Z</time>
      </trkpt>
      <trkpt lat="47.41625" lon="6.52722">
        <ele>333.1</ele>
        <time>2013-02-21T09:29:56Z</time>
      </trkpt>
      <trkpt lat="47.41625" lon="6.52738">
        <ele>333.8</ele>
        <time>2013-02-21T09:30:01Z</time>
      </trkpt>
      <trkpt lat="47.41625" lon="6.52755">
        <ele>333.8</ele>
        <time>2013-02-21T09:30:06Z</time>
      </trkpt>
      <trkpt lat="47.41625" lon="6.52772">
        <ele>331.2</ele>
        <time>2013-02-21T09:30:11Z</time>
      </trkpt>
      <trkpt lat="47.41625" lon="6.52787">
        <ele>334.2</ele>
        <time>2013-02-21T09:30:16Z</time>
      </trkpt>
      <trkpt lat="47.41625" lon="6.52802">
        <ele>333.1</ele>
        <time>2013-02-21T09:30:21Z</time>
      </trkpt>
      <trkpt lat="47.41625" lon="6.52818">
        <ele>333.6</ele>
        <time>2013-02-21T09:30:26Z</time>
      </trkpt>
      <trkpt lat="47.41625" lon="6.52833">
        <ele>333.6</ele>
        <time>2013-02-21T09:30:31Z</time>
      </trkpt>
      <trkpt lat="47.41625" lon="6.5285">
        <ele>333.5</ele>
        <time>2013-02-21T09:30:36Z</time>
      </trkpt>
      <trkpt lat="47.41625" lon="6.52865">
        <ele>333.5</ele>
        <time>2013-02-21T09:30:41Z</time>
      </trkpt>
      <trkpt lat="47.41623" lon="6.52882">
        <ele>332.9</ele>
        <time>2013-02-21T09:30:46Z</time>
      </trkpt>
      <trkpt lat="47.41623" lon="6.52897">
        <ele>333.2</ele>
        <time>2013-02-21T09:30:51Z</time>
      </trkpt>
      <trkpt lat="47.41623" lon="6.52912">
        <ele>332.9</ele>
        <time>2013-02-21T09:30:56Z</time>
      </trkpt>
      <trkpt lat="47.41623" lon="6.52928">
        <ele>332.4</ele>
        <time>2013-02-21T09:31:01Z</time>
      </trkpt>
      <trkpt lat="47.41623" lon="6.52945">
        <ele>334</ele>
        <time>2013-02-21T09:31:06Z</time>
      </trkpt>
      <trkpt lat="47.41623" lon="6.52962">
        <ele>333.8</ele>
        <time>2013-02-21T09:31:11Z</time>
      </trkpt>
      <trkpt lat="47.41623" lon="6.52975">
        <ele>333.8</ele>
        <time>2013-02-21T09:31:16Z</time>
      </trkpt>
      <trkpt lat="47.41622" lon="6.52992">
        <ele>333.5</ele>
        <time>2013-02-21T09:31:21Z</time>
      </trkpt>
      <trkpt lat="47.41622" lon="6.53007">
        <ele>333.8</ele>
        <time>2013-02-21T09:31:26Z</time>
      </trkpt>
      <trkpt lat="47.4162" lon="6.53025">
        <ele>333.2</ele>
        <time>2013-02-21T09:31:31Z</time>
      </trkpt>
      <trkpt lat="47.41618" lon="6.53042">
        <ele>332.9</ele>
        <time>2013-02-21T09:31:36Z</time>
      </trkpt>
      <trkpt lat="47.41618" lon="6.53058">
        <ele>333.6</ele>
        <time>2013-02-21T09:31:41Z</time>
      </trkpt>
      <trkpt lat="47.41618" lon="6.53078">
        <ele>334.2</ele>
        <time>2013-02-21T09:31:46Z</time>
      </trkpt>
      <trkpt lat="47.41617" lon="6.53095">
        <ele>331.9</ele>
        <time>2013-02-21T09:31:51Z</time>
      </trkpt>
      <trkpt lat="47.41615" lon="6.53112">
        <ele>332</ele>
        <time>2013-02-21T09:31:56Z</time>
      </trkpt>
      <trkpt lat="47.41615" lon="6.53132">
        <ele>333.3</ele>
        <time>2013-02-21T09:32:01Z</time>
      </trkpt>
      <trkpt lat="47.41615" lon="6.53148">
        <ele>333</ele>
        <time>2013-02-21T09:32:06Z</time>
      </trkpt>
      <trkpt lat="47.41615" lon="6.53165">
        <ele>332.1</ele>
        <time>2013-02-21T09:32:11Z</time>
      </trkpt>
      <trkpt lat="47.41615" lon="6.53185">
        <ele>332.7</ele>
        <time>2013-02-21T09:32:16Z</time>
      </trkpt>
      <trkpt lat="47.41615" lon="6.53203">
        <ele>331.9</ele>
        <time>2013-02-21T09:32:21Z</time>
      </trkpt>
      <trkpt lat="47.41615" lon="6.5322">
        <ele>332.2</ele>
        <time>2013-02-21T09:32:26Z</time>
      </trkpt>
      <trkpt lat="47.41615" lon="6.53238">
        <ele>333.4</ele>
        <time>2013-02-21T09:32:31Z</time>
      </trkpt>
      <trkpt lat="47.41613" lon="6.53257">
        <ele>333.3</ele>
        <time>2013-02-21T09:32:36Z</time>
      </trkpt>
      <trkpt lat="47.41613" lon="6.53275">
        <ele>333.6</ele>
        <time>2013-02-21T09:32:41Z</time>
      </trkpt>
      <trkpt lat="47.41612" lon="6.53293">
        <ele>333.6</ele>
        <time>2013-02-21T09:32:46Z</time>
      </trkpt>
      <trkpt lat="47.41612" lon="6.53312">
        <ele>332.9</ele>
        <time>2013-02-21T09:32:51Z</time>
      </trkpt>
      <trkpt lat="47.41612" lon="6.53332">
        <ele>333.2</ele>
        <time>2013-02-21T09:32:56Z</time>
      </trkpt>
      <trkpt lat="47.41612" lon="6.53348">
        <ele>332.8</ele>
        <time>2013-02-21T09:33:01Z</time>
      </trkpt>
      <trkpt lat="47.41612" lon="6.53368">
        <ele>334.2</ele>
        <time>2013-02-21T09:33:06Z</time>
      </trkpt>
      <trkpt lat="47.41612" lon="6.53388">
        <ele>333.1</ele>
        <time>2013-02-21T09:33:11Z</time>
      </trkpt>
      <trkpt lat="47.41612" lon="6.53408">
        <ele>334</ele>
        <time>2013-02-21T09:33:16Z</time>
      </trkpt>
      <trkpt lat="47.4161" lon="6.53428">
        <ele>333.2</ele>
        <time>2013-02-21T09:33:21Z</time>
      </trkpt>
      <trkpt lat="47.4161" lon="6.53447">
        <ele>333.2</ele>
        <time>2013-02-21T09:33:26Z</time>
      </trkpt>
      <trkpt lat="47.4161" lon="6.53465">
        <ele>333.7</ele>
        <time>2013-02-21T09:33:31Z</time>
      </trkpt>
      <trkpt lat="47.41608" lon="6.53487">
        <ele>333.4</ele>
        <time>2013-02-21T09:33:36Z</time>
      </trkpt>
      <trkpt lat="47.41607" lon="6.53507">
        <ele>332.2</ele>
        <time>2013-02-21T09:33:41Z</time>
      </trkpt>
      <trkpt lat="47.41607" lon="6.53525">
        <ele>333.4</ele>
        <time>2013-02-21T09:33:46Z</time>
      </trkpt>
      <trkpt lat="47.41608" lon="6.53545">
        <ele>333.4</ele>
        <time>2013-02-21T09:33:51Z</time>
      </trkpt>
      <trkpt lat="47.41607" lon="6.53565">
        <ele>332.8</ele>
        <time>2013-02-21T09:33:56Z</time>
      </trkpt>
      <trkpt lat="47.41607" lon="6.53585">
        <ele>333.8</ele>
        <time>2013-02-21T09:34:01Z</time>
      </trkpt>
      <trkpt lat="47.41607" lon="6.53602">
        <ele>331.5</ele>
        <time>2013-02-21T09:34:06Z</time>
      </trkpt>
      <trkpt lat="47.41607" lon="6.5362">
        <ele>333.2</ele>
        <time>2013-02-21T09:34:11Z</time>
      </trkpt>
      <trkpt lat="47.41607" lon="6.5364">
        <ele>333</ele>
        <time>2013-02-21T09:34:16Z</time>
      </trkpt>
      <trkpt lat="47.41605" lon="6.53658">
        <ele>332.1</ele>
        <time>2013-02-21T09:34:21Z</time>
      </trkpt>
      <trkpt lat="47.41607" lon="6.53677">
        <ele>333.8</ele>
        <time>2013-02-21T09:34:26Z</time>
      </trkpt>
      <trkpt lat="47.41607" lon="6.53693">
        <ele>332.7</ele>
        <time>2013-02-21T09:34:31Z</time>
      </trkpt>
      <trkpt lat="47.41607" lon="6.53713">
        <ele>332.7</ele>
        <time>2013-02-21T09:34:36Z</time>
      </trkpt>
      <trkpt lat="47.41607" lon="6.53733">
        <ele>331.5</ele>
        <time>2013-02-21T09:34:41Z</time>
      </trkpt>
      <trkpt lat="47.41607" lon="6.53752">
        <ele>332.5</ele>
        <time>2013-02-21T09:34:46Z</time>
      </trkpt>
      <trkpt lat="47.41605" lon="6.53773">
        <ele>331.5</ele>
        <time>2013-02-21T09:34:51Z</time>
      </trkpt>
      <trkpt lat="47.41605" lon="6.53793">
        <ele>332.3</ele>
        <time>2013-02-21T09:34:56Z</time>
      </trkpt>
      <trkpt lat="47.41603" lon="6.53813">
        <ele>332.9</ele>
        <time>2013-02-21T09:35:01Z</time>
      </trkpt>
      <trkpt lat="47.41605" lon="6.53833">
        <ele>333</ele>
        <time>2013-02-21T09:35:06Z</time>
      </trkpt>
      <trkpt lat="47.41605" lon="6.53855">
        <ele>333.4</ele>
        <time>2013-02-21T09:35:11Z</time>
      </trkpt>
      <trkpt lat="47.41603" lon="6.53877">
        <ele>333.9</ele>
        <time>2013-02-21T09:35:16Z</time>
      </trkpt>
      <trkpt lat="47.416" lon="6.53897">
        <ele>333.2</ele>
        <time>2013-02-21T09:35:21Z</time>
      </trkpt>
      <trkpt lat="47.416" lon="6.53917">
        <ele>333.1</ele>
        <time>2013-02-21T09:35:26Z</time>
      </trkpt>
      <trkpt lat="47.416" lon="6.5394">
        <ele>333.8</ele>
        <time>2013-02-21T09:35:31Z</time>
      </trkpt>
      <trkpt lat="47.41602" lon="6.5396">
        <ele>333.9</ele>
        <time>2013-02-21T09:35:36Z</time>
      </trkpt>
      <trkpt lat="47.41602" lon="6.5398">
        <ele>332.4</ele>
        <time>2013-02-21T09:35:41Z</time>
      </trkpt>
      <trkpt lat="47.41602" lon="6.53998">
        <ele>331.5</ele>
        <time>2013-02-21T09:35:46Z</time>
      </trkpt>
      <trkpt lat="47.416" lon="6.5402">
        <ele>332.2</ele>
        <time>2013-02-21T09:35:51Z</time>
      </trkpt>
      <trkpt lat="47.41598" lon="6.5404">
        <ele>331.7</ele>
        <time>2013-02-21T09:35:56Z</time>
      </trkpt>
      <trkpt lat="47.41602" lon="6.54058">
        <ele>333.8</ele>
        <time>2013-02-21T09:36:01Z</time>
      </trkpt>
      <trkpt lat="47.41602" lon="6.54078">
        <ele>330.8</ele>
        <time>2013-02-21T09:36:06Z</time>
      </trkpt>
      <trkpt lat="47.416" lon="6.54102">
        <ele>332.1</ele>
        <time>2013-02-21T09:36:11Z</time>
      </trkpt>
      <trkpt lat="47.41598" lon="6.54122">
        <ele>334.2</ele>
        <time>2013-02-21T09:36:16Z</time>
      </trkpt>
      <trkpt lat="47.41598" lon="6.54143">
        <ele>333.9</ele>
        <time>2013-02-21T09:36:21Z</time>
      </trkpt>
      <trkpt lat="47.41597" lon="6.54165">
        <ele>335.2</ele>
        <time>2013-02-21T09:36:26Z</time>
      </trkpt>
      <trkpt lat="47.416" lon="6.54168">
        <ele>335.7</ele>
        <time>2013-02-21T09:36:31Z</time>
      </trkpt>
      <trkpt lat="47.416" lon="6.54167">
        <ele>334.7</ele>
        <time>2013-02-21T09:36:56Z</time>
      </trkpt>
      <trkpt lat="47.41607" lon="6.54163">
        <ele>335.1</ele>
        <time>2013-02-21T09:37:01Z</time>
      </trkpt>
      <trkpt lat="47.41615" lon="6.54163">
        <ele>336.4</ele>
        <time>2013-02-21T09:37:06Z</time>
      </trkpt>
      <trkpt lat="47.41635" lon="6.5415">
        <ele>334.3</ele>
        <time>2013-02-21T09:37:11Z</time>
      </trkpt>
      <trkpt lat="47.41652" lon="6.54122">
        <ele>333.4</ele>
        <time>2013-02-21T09:37:16Z</time>
      </trkpt>
      <trkpt lat="47.41672" lon="6.54113">
        <ele>330.8</ele>
        <time>2013-02-21T09:37:21Z</time>
      </trkpt>
      <trkpt lat="47.41688" lon="6.54115">
        <ele>331.1</ele>
        <time>2013-02-21T09:37:26Z</time>
      </trkpt>
      <trkpt lat="47.41705" lon="6.54115">
        <ele>331.1</ele>
        <time>2013-02-21T09:37:31Z</time>
      </trkpt>
      <trkpt lat="47.41718" lon="6.54115">
        <ele>332.3</ele>
        <time>2013-02-21T09:37:36Z</time>
      </trkpt>
      <trkpt lat="47.41727" lon="6.5412">
        <ele>331.8</ele>
        <time>2013-02-21T09:37:41Z</time>
      </trkpt>
      <trkpt lat="47.41737" lon="6.54128">
        <ele>332.6</ele>
        <time>2013-02-21T09:37:46Z</time>
      </trkpt>
      <trkpt lat="47.41748" lon="6.54133">
        <ele>332.8</ele>
        <time>2013-02-21T09:37:51Z</time>
      </trkpt>
      <trkpt lat="47.41763" lon="6.5414">
        <ele>333.6</ele>
        <time>2013-02-21T09:37:56Z</time>
      </trkpt>
      <trkpt lat="47.41775" lon="6.54143">
        <ele>333.3</ele>
        <time>2013-02-21T09:38:01Z</time>
      </trkpt>
      <trkpt lat="47.41785" lon="6.54148">
        <ele>333.6</ele>
        <time>2013-02-21T09:38:06Z</time>
      </trkpt>
      <trkpt lat="47.4179" lon="6.54153">
        <ele>334.3</ele>
        <time>2013-02-21T09:38:11Z</time>
      </trkpt>
      <trkpt lat="47.418" lon="6.54145">
        <ele>335.8</ele>
        <time>2013-02-21T09:38:16Z</time>
      </trkpt>
      <trkpt lat="47.41815" lon="6.54145">
        <ele>337.1</ele>
        <time>2013-02-21T09:38:21Z</time>
      </trkpt>
      <trkpt lat="47.41823" lon="6.54142">
        <ele>338.5</ele>
        <time>2013-02-21T09:38:26Z</time>
      </trkpt>
      <trkpt lat="47.41828" lon="6.54135">
        <ele>339.2</ele>
        <time>2013-02-21T09:38:31Z</time>
      </trkpt>
      <trkpt lat="47.41833" lon="6.54125">
        <ele>338.2</ele>
        <time>2013-02-21T09:38:36Z</time>
      </trkpt>
      <trkpt lat="47.4184" lon="6.54113">
        <ele>338.4</ele>
        <time>2013-02-21T09:38:41Z</time>
      </trkpt>
      <trkpt lat="47.41847" lon="6.541">
        <ele>338.7</ele>
        <time>2013-02-21T09:38:46Z</time>
      </trkpt>
      <trkpt lat="47.41852" lon="6.54087">
        <ele>339.5</ele>
        <time>2013-02-21T09:38:51Z</time>
      </trkpt>
      <trkpt lat="47.41857" lon="6.54072">
        <ele>338.7</ele>
        <time>2013-02-21T09:38:56Z</time>
      </trkpt>
      <trkpt lat="47.41863" lon="6.54058">
        <ele>339.3</ele>
        <time>2013-02-21T09:39:01Z</time>
      </trkpt>
      <trkpt lat="47.4187" lon="6.54043">
        <ele>339.3</ele>
        <time>2013-02-21T09:39:06Z</time>
      </trkpt>
      <trkpt lat="47.41875" lon="6.54028">
        <ele>339.3</ele>
        <time>2013-02-21T09:39:11Z</time>
      </trkpt>
      <trkpt lat="47.41882" lon="6.54015">
        <ele>339.7</ele>
        <time>2013-02-21T09:39:16Z</time>
      </trkpt>
      <trkpt lat="47.41887" lon="6.53998">
        <ele>339.2</ele>
        <time>2013-02-21T09:39:21Z</time>
      </trkpt>
      <trkpt lat="47.41895" lon="6.53977">
        <ele>338.2</ele>
        <time>2013-02-21T09:39:26Z</time>
      </trkpt>
      <trkpt lat="47.41903" lon="6.53957">
        <ele>337.7</ele>
        <time>2013-02-21T09:39:31Z</time>
      </trkpt>
      <trkpt lat="47.4191" lon="6.53938">
        <ele>337.5</ele>
        <time>2013-02-21T09:39:36Z</time>
      </trkpt>
      <trkpt lat="47.41915" lon="6.53927">
        <ele>336.9</ele>
        <time>2013-02-21T09:39:41Z</time>
      </trkpt>
      <trkpt lat="47.4192" lon="6.53915">
        <ele>339.4</ele>
        <time>2013-02-21T09:39:46Z</time>
      </trkpt>
      <trkpt lat="47.41925" lon="6.53902">
        <ele>339.9</ele>
        <time>2013-02-21T09:39:51Z</time>
      </trkpt>
      <trkpt lat="47.4193" lon="6.53887">
        <ele>339.9</ele>
        <time>2013-02-21T09:39:56Z</time>
      </trkpt>
      <trkpt lat="47.41935" lon="6.53872">
        <ele>340.4</ele>
        <time>2013-02-21T09:40:01Z</time>
      </trkpt>
      <trkpt lat="47.41938" lon="6.53855">
        <ele>340.4</ele>
        <time>2013-02-21T09:40:06Z</time>
      </trkpt>
      <trkpt lat="47.41942" lon="6.53837">
        <ele>339</ele>
        <time>2013-02-21T09:40:11Z</time>
      </trkpt>
      <trkpt lat="47.41945" lon="6.53818">
        <ele>339.1</ele>
        <time>2013-02-21T09:40:16Z</time>
      </trkpt>
      <trkpt lat="47.41948" lon="6.53798">
        <ele>339.6</ele>
        <time>2013-02-21T09:40:21Z</time>
      </trkpt>
      <trkpt lat="47.4195" lon="6.53782">
        <ele>338.8</ele>
        <time>2013-02-21T09:40:26Z</time>
      </trkpt>
      <trkpt lat="47.41955" lon="6.53767">
        <ele>339.3</ele>
        <time>2013-02-21T09:40:31Z</time>
      </trkpt>
      <trkpt lat="47.41958" lon="6.5375">
        <ele>338.6</ele>
        <time>2013-02-21T09:40:36Z</time>
      </trkpt>
      <trkpt lat="47.41962" lon="6.53735">
        <ele>338.8</ele>
        <time>2013-02-21T09:40:41Z</time>
      </trkpt>
      <trkpt lat="47.41967" lon="6.53722">
        <ele>340.2</ele>
        <time>2013-02-21T09:40:46Z</time>
      </trkpt>
      <trkpt lat="47.4197" lon="6.53707">
        <ele>339.4</ele>
        <time>2013-02-21T09:40:51Z</time>
      </trkpt>
      <trkpt lat="47.41973" lon="6.53692">
        <ele>339.9</ele>
        <time>2013-02-21T09:40:56Z</time>
      </trkpt>
      <trkpt lat="47.41977" lon="6.53677">
        <ele>339</ele>
        <time>2013-02-21T09:41:01Z</time>
      </trkpt>
      <trkpt lat="47.4198" lon="6.5366">
        <ele>338.7</ele>
        <time>2013-02-21T09:41:06Z</time>
      </trkpt>
      <trkpt lat="47.41983" lon="6.53642">
        <ele>339.4</ele>
        <time>2013-02-21T09:41:11Z</time>
      </trkpt>
      <trkpt lat="47.41988" lon="6.53623">
        <ele>340</ele>
        <time>2013-02-21T09:41:16Z</time>
      </trkpt>
      <trkpt lat="47.41992" lon="6.53605">
        <ele>339.1</ele>
        <time>2013-02-21T09:41:21Z</time>
      </trkpt>
      <trkpt lat="47.41993" lon="6.53585">
        <ele>339.4</ele>
        <time>2013-02-21T09:41:26Z</time>
      </trkpt>
      <trkpt lat="47.41997" lon="6.53567">
        <ele>339.8</ele>
        <time>2013-02-21T09:41:31Z</time>
      </trkpt>
      <trkpt lat="47.41998" lon="6.53547">
        <ele>338.9</ele>
        <time>2013-02-21T09:41:36Z</time>
      </trkpt>
      <trkpt lat="47.42" lon="6.53528">
        <ele>340</ele>
        <time>2013-02-21T09:41:41Z</time>
      </trkpt>
      <trkpt lat="47.42002" lon="6.5351">
        <ele>339.6</ele>
        <time>2013-02-21T09:41:46Z</time>
      </trkpt>
      <trkpt lat="47.42002" lon="6.5349">
        <ele>339.4</ele>
        <time>2013-02-21T09:41:51Z</time>
      </trkpt>
      <trkpt lat="47.42003" lon="6.5347">
        <ele>339.3</ele>
        <time>2013-02-21T09:41:56Z</time>
      </trkpt>
      <trkpt lat="47.42003" lon="6.53452">
        <ele>339.1</ele>
        <time>2013-02-21T09:42:01Z</time>
      </trkpt>
      <trkpt lat="47.42003" lon="6.53433">
        <ele>339.2</ele>
        <time>2013-02-21T09:42:06Z</time>
      </trkpt>
      <trkpt lat="47.42003" lon="6.53415">
        <ele>338.5</ele>
        <time>2013-02-21T09:42:11Z</time>
      </trkpt>
      <trkpt lat="47.42003" lon="6.53395">
        <ele>339</ele>
        <time>2013-02-21T09:42:16Z</time>
      </trkpt>
      <trkpt lat="47.42002" lon="6.53375">
        <ele>338.7</ele>
        <time>2013-02-21T09:42:21Z</time>
      </trkpt>
      <trkpt lat="47.41998" lon="6.53357">
        <ele>338.3</ele>
        <time>2013-02-21T09:42:26Z</time>
      </trkpt>
      <trkpt lat="47.41995" lon="6.53338">
        <ele>337</ele>
        <time>2013-02-21T09:42:31Z</time>
      </trkpt>
      <trkpt lat="47.41992" lon="6.53318">
        <ele>338.4</ele>
        <time>2013-02-21T09:42:36Z</time>
      </trkpt>
      <trkpt lat="47.4199" lon="6.533">
        <ele>338.4</ele>
        <time>2013-02-21T09:42:41Z</time>
      </trkpt>
      <trkpt lat="47.41987" lon="6.53282">
        <ele>338.1</ele>
        <time>2013-02-21T09:42:46Z</time>
      </trkpt>
      <trkpt lat="47.41985" lon="6.53263">
        <ele>338.5</ele>
        <time>2013-02-21T09:42:51Z</time>
      </trkpt>
      <trkpt lat="47.41982" lon="6.53245">
        <ele>339.1</ele>
        <time>2013-02-21T09:42:56Z</time>
      </trkpt>
      <trkpt lat="47.41978" lon="6.53227">
        <ele>337.9</ele>
        <time>2013-02-21T09:43:01Z</time>
      </trkpt>
      <trkpt lat="47.41975" lon="6.5321">
        <ele>338.5</ele>
        <time>2013-02-21T09:43:06Z</time>
      </trkpt>
      <trkpt lat="47.41972" lon="6.5319">
        <ele>338.5</ele>
        <time>2013-02-21T09:43:11Z</time>
      </trkpt>
      <trkpt lat="47.41967" lon="6.53172">
        <ele>339.4</ele>
        <time>2013-02-21T09:43:16Z</time>
      </trkpt>
      <trkpt lat="47.41963" lon="6.53152">
        <ele>338.5</ele>
        <time>2013-02-21T09:43:21Z</time>
      </trkpt>
      <trkpt lat="47.41958" lon="6.53133">
        <ele>339</ele>
        <time>2013-02-21T09:43:26Z</time>
      </trkpt>
      <trkpt lat="47.41955" lon="6.53113">
        <ele>338.1</ele>
        <time>2013-02-21T09:43:31Z</time>
      </trkpt>
      <trkpt lat="47.41948" lon="6.53092">
        <ele>338.7</ele>
        <time>2013-02-21T09:43:36Z</time>
      </trkpt>
      <trkpt lat="47.41943" lon="6.53072">
        <ele>338.9</ele>
        <time>2013-02-21T09:43:41Z</time>
      </trkpt>
      <trkpt lat="47.4194" lon="6.5305">
        <ele>339.7</ele>
        <time>2013-02-21T09:43:46Z</time>
      </trkpt>
      <trkpt lat="47.41935" lon="6.53028">
        <ele>338.3</ele>
        <time>2013-02-21T09:43:51Z</time>
      </trkpt>
      <trkpt lat="47.4193" lon="6.5301">
        <ele>338.3</ele>
        <time>2013-02-21T09:43:56Z</time>
      </trkpt>
      <trkpt lat="47.41925" lon="6.52992">
        <ele>338.3</ele>
        <time>2013-02-21T09:44:01Z</time>
      </trkpt>
      <trkpt lat="47.41917" lon="6.52967">
        <ele>336</ele>
        <time>2013-02-21T09:44:06Z</time>
      </trkpt>
      <trkpt lat="47.41908" lon="6.52938">
        <ele>334</ele>
        <time>2013-02-21T09:44:11Z</time>
      </trkpt>
      <trkpt lat="47.41898" lon="6.52903">
        <ele>336.1</ele>
        <time>2013-02-21T09:44:16Z</time>
      </trkpt>
      <trkpt lat="47.4189" lon="6.52873">
        <ele>335.6</ele>
        <time>2013-02-21T09:44:21Z</time>
      </trkpt>
      <trkpt lat="47.41882" lon="6.52842">
        <ele>335.6</ele>
        <time>2013-02-21T09:44:26Z</time>
      </trkpt>
      <trkpt lat="47.4187" lon="6.52807">
        <ele>335.6</ele>
        <time>2013-02-21T09:44:31Z</time>
      </trkpt>
      <trkpt lat="47.41853" lon="6.5277">
        <ele>332.7</ele>
        <time>2013-02-21T09:44:36Z</time>
      </trkpt>
      <trkpt lat="47.4184" lon="6.52738">
        <ele>333</ele>
        <time>2013-02-21T09:44:41Z</time>
      </trkpt>
      <trkpt lat="47.4183" lon="6.52712">
        <ele>332.5</ele>
        <time>2013-02-21T09:44:46Z</time>
      </trkpt>
      <trkpt lat="47.41823" lon="6.52688">
        <ele>332.3</ele>
        <time>2013-02-21T09:44:51Z</time>
      </trkpt>
      <trkpt lat="47.41823" lon="6.52662">
        <ele>333</ele>
        <time>2013-02-21T09:44:56Z</time>
      </trkpt>
      <trkpt lat="47.41823" lon="6.52637">
        <ele>332.8</ele>
        <time>2013-02-21T09:45:01Z</time>
      </trkpt>
      <trkpt lat="47.41828" lon="6.52612">
        <ele>332.2</ele>
        <time>2013-02-21T09:45:06Z</time>
      </trkpt>
      <trkpt lat="47.4184" lon="6.52595">
        <ele>333</ele>
        <time>2013-02-21T09:45:11Z</time>
      </trkpt>
      <trkpt lat="47.41853" lon="6.52582">
        <ele>332.6</ele>
        <time>2013-02-21T09:45:16Z</time>
      </trkpt>
      <trkpt lat="47.41865" lon="6.52567">
        <ele>332.6</ele>
        <time>2013-02-21T09:45:21Z</time>
      </trkpt>
      <trkpt lat="47.41873" lon="6.52545">
        <ele>332.8</ele>
        <time>2013-02-21T09:45:26Z</time>
      </trkpt>
      <trkpt lat="47.41865" lon="6.5252">
        <ele>333.3</ele>
        <time>2013-02-21T09:45:31Z</time>
      </trkpt>
      <trkpt lat="47.41858" lon="6.52502">
        <ele>332.9</ele>
        <time>2013-02-21T09:45:36Z</time>
      </trkpt>
      <trkpt lat="47.41847" lon="6.52485">
        <ele>333.7</ele>
        <time>2013-02-21T09:45:41Z</time>
      </trkpt>
      <trkpt lat="47.4184" lon="6.52473">
        <ele>333.7</ele>
        <time>2013-02-21T09:45:46Z</time>
      </trkpt>
      <trkpt lat="47.4184" lon="6.52473">
        <ele>334</ele>
        <time>2013-02-21T09:45:51Z</time>
      </trkpt>
      <trkpt lat="47.41838" lon="6.5247">
        <ele>334.3</ele>
        <time>2013-02-21T09:46:41Z</time>
      </trkpt>
      <trkpt lat="47.4183" lon="6.52458">
        <ele>333.3</ele>
        <time>2013-02-21T09:46:46Z</time>
      </trkpt>
      <trkpt lat="47.4182" lon="6.52435">
        <ele>332.3</ele>
        <time>2013-02-21T09:46:51Z</time>
      </trkpt>
      <trkpt lat="47.41815" lon="6.52408">
        <ele>332.6</ele>
        <time>2013-02-21T09:46:56Z</time>
      </trkpt>
      <trkpt lat="47.4181" lon="6.52388">
        <ele>333.5</ele>
        <time>2013-02-21T09:47:01Z</time>
      </trkpt>
      <trkpt lat="47.41807" lon="6.5237">
        <ele>333.5</ele>
        <time>2013-02-21T09:47:06Z</time>
      </trkpt>
      <trkpt lat="47.41803" lon="6.5235">
        <ele>332.4</ele>
        <time>2013-02-21T09:47:11Z</time>
      </trkpt>
      <trkpt lat="47.41798" lon="6.52338">
        <ele>333.4</ele>
        <time>2013-02-21T09:47:16Z</time>
      </trkpt>
      <trkpt lat="47.41797" lon="6.5233">
        <ele>334.6</ele>
        <time>2013-02-21T09:47:21Z</time>
      </trkpt>
      <trkpt lat="47.41797" lon="6.5232">
        <ele>334.6</ele>
        <time>2013-02-21T09:47:26Z</time>
      </trkpt>
      <trkpt lat="47.41795" lon="6.52308">
        <ele>334.1</ele>
        <time>2013-02-21T09:47:31Z</time>
      </trkpt>
      <trkpt lat="47.4179" lon="6.52297">
        <ele>334.1</ele>
        <time>2013-02-21T09:47:36Z</time>
      </trkpt>
      <trkpt lat="47.41788" lon="6.52287">
        <ele>335.1</ele>
        <time>2013-02-21T09:47:41Z</time>
      </trkpt>
      <trkpt lat="47.41783" lon="6.52277">
        <ele>335.9</ele>
        <time>2013-02-21T09:47:46Z</time>
      </trkpt>
      <trkpt lat="47.4178" lon="6.52267">
        <ele>336.2</ele>
        <time>2013-02-21T09:47:51Z</time>
      </trkpt>
      <trkpt lat="47.41777" lon="6.52258">
        <ele>337.7</ele>
        <time>2013-02-21T09:47:56Z</time>
      </trkpt>
      <trkpt lat="47.41772" lon="6.5225">
        <ele>336.7</ele>
        <time>2013-02-21T09:48:01Z</time>
      </trkpt>
      <trkpt lat="47.41768" lon="6.5224">
        <ele>338.6</ele>
        <time>2013-02-21T09:48:06Z</time>
      </trkpt>
      <trkpt lat="47.41765" lon="6.5223">
        <ele>338.6</ele>
        <time>2013-02-21T09:48:11Z</time>
      </trkpt>
      <trkpt lat="47.4176" lon="6.52218">
        <ele>340</ele>
        <time>2013-02-21T09:48:16Z</time>
      </trkpt>
      <trkpt lat="47.41757" lon="6.52207">
        <ele>337.1</ele>
        <time>2013-02-21T09:48:21Z</time>
      </trkpt>
      <trkpt lat="47.41752" lon="6.52193">
        <ele>338.2</ele>
        <time>2013-02-21T09:48:26Z</time>
      </trkpt>
      <trkpt lat="47.41747" lon="6.52182">
        <ele>339.5</ele>
        <time>2013-02-21T09:48:31Z</time>
      </trkpt>
      <trkpt lat="47.41743" lon="6.5217">
        <ele>339.5</ele>
        <time>2013-02-21T09:48:36Z</time>
      </trkpt>
      <trkpt lat="47.41738" lon="6.52157">
        <ele>339.9</ele>
        <time>2013-02-21T09:48:41Z</time>
      </trkpt>
      <trkpt lat="47.41735" lon="6.52143">
        <ele>341.8</ele>
        <time>2013-02-21T09:48:46Z</time>
      </trkpt>
      <trkpt lat="47.41733" lon="6.52132">
        <ele>339.4</ele>
        <time>2013-02-21T09:48:51Z</time>
      </trkpt>
      <trkpt lat="47.41732" lon="6.52118">
        <ele>341.1</ele>
        <time>2013-02-21T09:48:56Z</time>
      </trkpt>
      <trkpt lat="47.4173" lon="6.52108">
        <ele>341.8</ele>
        <time>2013-02-21T09:49:01Z</time>
      </trkpt>
      <trkpt lat="47.41728" lon="6.52097">
        <ele>341.8</ele>
        <time>2013-02-21T09:49:06Z</time>
      </trkpt>
      <trkpt lat="47.41727" lon="6.52087">
        <ele>342.1</ele>
        <time>2013-02-21T09:49:11Z</time>
      </trkpt>
      <trkpt lat="47.41725" lon="6.52075">
        <ele>343.7</ele>
        <time>2013-02-21T09:49:16Z</time>
      </trkpt>
      <trkpt lat="47.41723" lon="6.52067">
        <ele>344.2</ele>
        <time>2013-02-21T09:49:21Z</time>
      </trkpt>
      <trkpt lat="47.41723" lon="6.52055">
        <ele>345.6</ele>
        <time>2013-02-21T09:49:26Z</time>
      </trkpt>
      <trkpt lat="47.41722" lon="6.52047">
        <ele>344.2</ele>
        <time>2013-02-21T09:49:31Z</time>
      </trkpt>
      <trkpt lat="47.4172" lon="6.52037">
        <ele>345.3</ele>
        <time>2013-02-21T09:49:36Z</time>
      </trkpt>
      <trkpt lat="47.41718" lon="6.52025">
        <ele>346.2</ele>
        <time>2013-02-21T09:49:41Z</time>
      </trkpt>
      <trkpt lat="47.4172" lon="6.52015">
        <ele>347.1</ele>
        <time>2013-02-21T09:49:46Z</time>
      </trkpt>
      <trkpt lat="47.41718" lon="6.52005">
        <ele>347.3</ele>
        <time>2013-02-21T09:49:51Z</time>
      </trkpt>
      <trkpt lat="47.41718" lon="6.51995">
        <ele>347.6</ele>
        <time>2013-02-21T09:49:56Z</time>
      </trkpt>
      <trkpt lat="47.41718" lon="6.51983">
        <ele>347.6</ele>
        <time>2013-02-21T09:50:01Z</time>
      </trkpt>
      <trkpt lat="47.41718" lon="6.51973">
        <ele>347.4</ele>
        <time>2013-02-21T09:50:06Z</time>
      </trkpt>
      <trkpt lat="47.41718" lon="6.51965">
        <ele>348</ele>
        <time>2013-02-21T09:50:11Z</time>
      </trkpt>
      <trkpt lat="47.41718" lon="6.51955">
        <ele>347.6</ele>
        <time>2013-02-21T09:50:16Z</time>
      </trkpt>
      <trkpt lat="47.4172" lon="6.51945">
        <ele>348.6</ele>
        <time>2013-02-21T09:50:21Z</time>
      </trkpt>
      <trkpt lat="47.4172" lon="6.51937">
        <ele>350.4</ele>
        <time>2013-02-21T09:50:26Z</time>
      </trkpt>
      <trkpt lat="47.4172" lon="6.51925">
        <ele>350.8</ele>
        <time>2013-02-21T09:50:31Z</time>
      </trkpt>
      <trkpt lat="47.4172" lon="6.51918">
        <ele>351.2</ele>
        <time>2013-02-21T09:50:36Z</time>
      </trkpt>
      <trkpt lat="47.41722" lon="6.5191">
        <ele>352.2</ele>
        <time>2013-02-21T09:50:41Z</time>
      </trkpt>
      <trkpt lat="47.41722" lon="6.51898">
        <ele>350.9</ele>
        <time>2013-02-21T09:50:46Z</time>
      </trkpt>
      <trkpt lat="47.41722" lon="6.51888">
        <ele>352.2</ele>
        <time>2013-02-21T09:50:51Z</time>
      </trkpt>
      <trkpt lat="47.41722" lon="6.51878">
        <ele>352.9</ele>
        <time>2013-02-21T09:50:56Z</time>
      </trkpt>
      <trkpt lat="47.41723" lon="6.5187">
        <ele>352.3</ele>
        <time>2013-02-21T09:51:01Z</time>
      </trkpt>
      <trkpt lat="47.41725" lon="6.51858">
        <ele>353</ele>
        <time>2013-02-21T09:51:06Z</time>
      </trkpt>
      <trkpt lat="47.41727" lon="6.51853">
        <ele>353.1</ele>
        <time>2013-02-21T09:51:11Z</time>
      </trkpt>
      <trkpt lat="47.41727" lon="6.51845">
        <ele>353.3</ele>
        <time>2013-02-21T09:51:16Z</time>
      </trkpt>
      <trkpt lat="47.41728" lon="6.51835">
        <ele>353.9</ele>
        <time>2013-02-21T09:51:21Z</time>
      </trkpt>
      <trkpt lat="47.41727" lon="6.51827">
        <ele>354.7</ele>
        <time>2013-02-21T09:51:26Z</time>
      </trkpt>
      <trkpt lat="47.41727" lon="6.51818">
        <ele>355.1</ele>
        <time>2013-02-21T09:51:31Z</time>
      </trkpt>
      <trkpt lat="47.41727" lon="6.51808">
        <ele>354.7</ele>
        <time>2013-02-21T09:51:36Z</time>
      </trkpt>
      <trkpt lat="47.41727" lon="6.518">
        <ele>355.7</ele>
        <time>2013-02-21T09:51:41Z</time>
      </trkpt>
      <trkpt lat="47.41727" lon="6.51792">
        <ele>356.2</ele>
        <time>2013-02-21T09:51:46Z</time>
      </trkpt>
      <trkpt lat="47.41727" lon="6.51782">
        <ele>356.2</ele>
        <time>2013-02-21T09:51:51Z</time>
      </trkpt>
      <trkpt lat="47.41727" lon="6.51772">
        <ele>356.7</ele>
        <time>2013-02-21T09:51:56Z</time>
      </trkpt>
      <trkpt lat="47.41727" lon="6.51763">
        <ele>356.6</ele>
        <time>2013-02-21T09:52:01Z</time>
      </trkpt>
      <trkpt lat="47.41725" lon="6.51755">
        <ele>357.2</ele>
        <time>2013-02-21T09:52:06Z</time>
      </trkpt>
      <trkpt lat="47.41723" lon="6.51745">
        <ele>357.7</ele>
        <time>2013-02-21T09:52:11Z</time>
      </trkpt>
      <trkpt lat="47.4172" lon="6.51737">
        <ele>358.2</ele>
        <time>2013-02-21T09:52:16Z</time>
      </trkpt>
      <trkpt lat="47.41717" lon="6.51728">
        <ele>358.7</ele>
        <time>2013-02-21T09:52:21Z</time>
      </trkpt>
      <trkpt lat="47.41715" lon="6.51718">
        <ele>359</ele>
        <time>2013-02-21T09:52:26Z</time>
      </trkpt>
      <trkpt lat="47.41715" lon="6.51708">
        <ele>359.6</ele>
        <time>2013-02-21T09:52:31Z</time>
      </trkpt>
      <trkpt lat="47.41713" lon="6.51698">
        <ele>358.9</ele>
        <time>2013-02-21T09:52:36Z</time>
      </trkpt>
      <trkpt lat="47.4171" lon="6.5169">
        <ele>360</ele>
        <time>2013-02-21T09:52:41Z</time>
      </trkpt>
      <trkpt lat="47.4171" lon="6.51678">
        <ele>359.9</ele>
        <time>2013-02-21T09:52:46Z</time>
      </trkpt>
      <trkpt lat="47.41708" lon="6.51668">
        <ele>361.2</ele>
        <time>2013-02-21T09:52:51Z</time>
      </trkpt>
      <trkpt lat="47.41708" lon="6.51658">
        <ele>361.8</ele>
        <time>2013-02-21T09:52:56Z</time>
      </trkpt>
      <trkpt lat="47.41707" lon="6.5165">
        <ele>362.5</ele>
        <time>2013-02-21T09:53:01Z</time>
      </trkpt>
      <trkpt lat="47.41703" lon="6.51643">
        <ele>362.7</ele>
        <time>2013-02-21T09:53:06Z</time>
      </trkpt>
      <trkpt lat="47.41702" lon="6.51635">
        <ele>363.2</ele>
        <time>2013-02-21T09:53:11Z</time>
      </trkpt>
      <trkpt lat="47.417" lon="6.51625">
        <ele>363.2</ele>
        <time>2013-02-21T09:53:16Z</time>
      </trkpt>
      <trkpt lat="47.41698" lon="6.51615">
        <ele>363.7</ele>
        <time>2013-02-21T09:53:21Z</time>
      </trkpt>
      <trkpt lat="47.41698" lon="6.51605">
        <ele>364.7</ele>
        <time>2013-02-21T09:53:26Z</time>
      </trkpt>
      <trkpt lat="47.41695" lon="6.51593">
        <ele>364.2</ele>
        <time>2013-02-21T09:53:31Z</time>
      </trkpt>
      <trkpt lat="47.41693" lon="6.51585">
        <ele>364.6</ele>
        <time>2013-02-21T09:53:36Z</time>
      </trkpt>
      <trkpt lat="47.41693" lon="6.51577">
        <ele>365.1</ele>
        <time>2013-02-21T09:53:41Z</time>
      </trkpt>
      <trkpt lat="47.41692" lon="6.51568">
        <ele>366</ele>
        <time>2013-02-21T09:53:46Z</time>
      </trkpt>
      <trkpt lat="47.41692" lon="6.51558">
        <ele>365.6</ele>
        <time>2013-02-21T09:53:51Z</time>
      </trkpt>
      <trkpt lat="47.41688" lon="6.51548">
        <ele>366.6</ele>
        <time>2013-02-21T09:53:56Z</time>
      </trkpt>
      <trkpt lat="47.41687" lon="6.51538">
        <ele>366.7</ele>
        <time>2013-02-21T09:54:01Z</time>
      </trkpt>
      <trkpt lat="47.41685" lon="6.5153">
        <ele>367.5</ele>
        <time>2013-02-21T09:54:06Z</time>
      </trkpt>
      <trkpt lat="47.41683" lon="6.51522">
        <ele>367.9</ele>
        <time>2013-02-21T09:54:11Z</time>
      </trkpt>
      <trkpt lat="47.41682" lon="6.51513">
        <ele>367.9</ele>
        <time>2013-02-21T09:54:16Z</time>
      </trkpt>
      <trkpt lat="47.4168" lon="6.51507">
        <ele>368.4</ele>
        <time>2013-02-21T09:54:21Z</time>
      </trkpt>
      <trkpt lat="47.41678" lon="6.51497">
        <ele>368.8</ele>
        <time>2013-02-21T09:54:26Z</time>
      </trkpt>
      <trkpt lat="47.41677" lon="6.51488">
        <ele>369</ele>
        <time>2013-02-21T09:54:31Z</time>
      </trkpt>
      <trkpt lat="47.41677" lon="6.51478">
        <ele>369.1</ele>
        <time>2013-02-21T09:54:36Z</time>
      </trkpt>
      <trkpt lat="47.41675" lon="6.5147">
        <ele>369.8</ele>
        <time>2013-02-21T09:54:41Z</time>
      </trkpt>
      <trkpt lat="47.41675" lon="6.51467">
        <ele>370.5</ele>
        <time>2013-02-21T09:54:46Z</time>
      </trkpt>
      <trkpt lat="47.41677" lon="6.51468">
        <ele>369.9</ele>
        <time>2013-02-21T09:54:51Z</time>
      </trkpt>
      <trkpt lat="47.41677" lon="6.51468">
        <ele>369.9</ele>
        <time>2013-02-21T09:54:56Z</time>
      </trkpt>
      <trkpt lat="47.41675" lon="6.51458">
        <ele>369.7</ele>
        <time>2013-02-21T09:57:01Z</time>
      </trkpt>
      <trkpt lat="47.41672" lon="6.51443">
        <ele>369.7</ele>
        <time>2013-02-21T09:57:06Z</time>
      </trkpt>
      <trkpt lat="47.41668" lon="6.51427">
        <ele>369.7</ele>
        <time>2013-02-21T09:57:11Z</time>
      </trkpt>
      <trkpt lat="47.41665" lon="6.5141">
        <ele>370.7</ele>
        <time>2013-02-21T09:57:16Z</time>
      </trkpt>
      <trkpt lat="47.41663" lon="6.51395">
        <ele>369.6</ele>
        <time>2013-02-21T09:57:21Z</time>
      </trkpt>
      <trkpt lat="47.4166" lon="6.51378">
        <ele>370</ele>
        <time>2013-02-21T09:57:26Z</time>
      </trkpt>
      <trkpt lat="47.41662" lon="6.51362">
        <ele>370.3</ele>
        <time>2013-02-21T09:57:31Z</time>
      </trkpt>
      <trkpt lat="47.4166" lon="6.51347">
        <ele>370.3</ele>
        <time>2013-02-21T09:57:36Z</time>
      </trkpt>
      <trkpt lat="47.41662" lon="6.5133">
        <ele>371</ele>
        <time>2013-02-21T09:57:41Z</time>
      </trkpt>
      <trkpt lat="47.41662" lon="6.51313">
        <ele>372</ele>
        <time>2013-02-21T09:57:46Z</time>
      </trkpt>
      <trkpt lat="47.41663" lon="6.51297">
        <ele>371.6</ele>
        <time>2013-02-21T09:57:51Z</time>
      </trkpt>
      <trkpt lat="47.41663" lon="6.5128">
        <ele>372.7</ele>
        <time>2013-02-21T09:57:56Z</time>
      </trkpt>
      <trkpt lat="47.41663" lon="6.51263">
        <ele>372.3</ele>
        <time>2013-02-21T09:58:01Z</time>
      </trkpt>
      <trkpt lat="47.41663" lon="6.5125">
        <ele>372.9</ele>
        <time>2013-02-21T09:58:06Z</time>
      </trkpt>
      <trkpt lat="47.41663" lon="6.51235">
        <ele>372.6</ele>
        <time>2013-02-21T09:58:11Z</time>
      </trkpt>
      <trkpt lat="47.41662" lon="6.51218">
        <ele>373.9</ele>
        <time>2013-02-21T09:58:16Z</time>
      </trkpt>
      <trkpt lat="47.4166" lon="6.51205">
        <ele>372.3</ele>
        <time>2013-02-21T09:58:21Z</time>
      </trkpt>
      <trkpt lat="47.41662" lon="6.51192">
        <ele>372.9</ele>
        <time>2013-02-21T09:58:26Z</time>
      </trkpt>
      <trkpt lat="47.41663" lon="6.51175">
        <ele>372.1</ele>
        <time>2013-02-21T09:58:31Z</time>
      </trkpt>
      <trkpt lat="47.41662" lon="6.51162">
        <ele>373.8</ele>
        <time>2013-02-21T09:58:36Z</time>
      </trkpt>
      <trkpt lat="47.41662" lon="6.51147">
        <ele>374</ele>
        <time>2013-02-21T09:58:41Z</time>
      </trkpt>
      <trkpt lat="47.41662" lon="6.51132">
        <ele>373</ele>
        <time>2013-02-21T09:58:46Z</time>
      </trkpt>
      <trkpt lat="47.41662" lon="6.51117">
        <ele>374.5</ele>
        <time>2013-02-21T09:58:51Z</time>
      </trkpt>
      <trkpt lat="47.41662" lon="6.51103">
        <ele>374.1</ele>
        <time>2013-02-21T09:58:56Z</time>
      </trkpt>
      <trkpt lat="47.41662" lon="6.51092">
        <ele>374.6</ele>
        <time>2013-02-21T09:59:01Z</time>
      </trkpt>
      <trkpt lat="47.41662" lon="6.51078">
        <ele>375.6</ele>
        <time>2013-02-21T09:59:06Z</time>
      </trkpt>
      <trkpt lat="47.41662" lon="6.51065">
        <ele>374.9</ele>
        <time>2013-02-21T09:59:11Z</time>
      </trkpt>
      <trkpt lat="47.41662" lon="6.51052">
        <ele>376.7</ele>
        <time>2013-02-21T09:59:16Z</time>
      </trkpt>
      <trkpt lat="47.41662" lon="6.51038">
        <ele>375.7</ele>
        <time>2013-02-21T09:59:21Z</time>
      </trkpt>
      <trkpt lat="47.41662" lon="6.51027">
        <ele>378.1</ele>
        <time>2013-02-21T09:59:26Z</time>
      </trkpt>
      <trkpt lat="47.41662" lon="6.51017">
        <ele>377.8</ele>
        <time>2013-02-21T09:59:31Z</time>
      </trkpt>
      <trkpt lat="47.41662" lon="6.51005">
        <ele>377.6</ele>
        <time>2013-02-21T09:59:36Z</time>
      </trkpt>
      <trkpt lat="47.41662" lon="6.50995">
        <ele>377.6</ele>
        <time>2013-02-21T09:59:41Z</time>
      </trkpt>
      <trkpt lat="47.41658" lon="6.50985">
        <ele>379.1</ele>
        <time>2013-02-21T09:59:46Z</time>
      </trkpt>
      <trkpt lat="47.41657" lon="6.50975">
        <ele>379.6</ele>
        <time>2013-02-21T09:59:51Z</time>
      </trkpt>
      <trkpt lat="47.41653" lon="6.50963">
        <ele>379</ele>
        <time>2013-02-21T09:59:56Z</time>
      </trkpt>
      <trkpt lat="47.4165" lon="6.5095">
        <ele>379.9</ele>
        <time>2013-02-21T10:00:01Z</time>
      </trkpt>
      <trkpt lat="47.41647" lon="6.50937">
        <ele>380.7</ele>
        <time>2013-02-21T10:00:06Z</time>
      </trkpt>
      <trkpt lat="47.41645" lon="6.50925">
        <ele>381.2</ele>
        <time>2013-02-21T10:00:11Z</time>
      </trkpt>
      <trkpt lat="47.41642" lon="6.50915">
        <ele>381.9</ele>
        <time>2013-02-21T10:00:16Z</time>
      </trkpt>
      <trkpt lat="47.4164" lon="6.50902">
        <ele>380.8</ele>
        <time>2013-02-21T10:00:21Z</time>
      </trkpt>
      <trkpt lat="47.41638" lon="6.5089">
        <ele>382.5</ele>
        <time>2013-02-21T10:00:26Z</time>
      </trkpt>
      <trkpt lat="47.41635" lon="6.5088">
        <ele>382.3</ele>
        <time>2013-02-21T10:00:31Z</time>
      </trkpt>
      <trkpt lat="47.41632" lon="6.50868">
        <ele>381.3</ele>
        <time>2013-02-21T10:00:36Z</time>
      </trkpt>
      <trkpt lat="47.41628" lon="6.50855">
        <ele>382.3</ele>
        <time>2013-02-21T10:00:41Z</time>
      </trkpt>
      <trkpt lat="47.41625" lon="6.5084">
        <ele>381.8</ele>
        <time>2013-02-21T10:00:46Z</time>
      </trkpt>
      <trkpt lat="47.41622" lon="6.50825">
        <ele>382.4</ele>
        <time>2013-02-21T10:00:51Z</time>
      </trkpt>
      <trkpt lat="47.41617" lon="6.50812">
        <ele>383.2</ele>
        <time>2013-02-21T10:00:56Z</time>
      </trkpt>
      <trkpt lat="47.41613" lon="6.50797">
        <ele>384.1</ele>
        <time>2013-02-21T10:01:01Z</time>
      </trkpt>
      <trkpt lat="47.41608" lon="6.5078">
        <ele>384.1</ele>
        <time>2013-02-21T10:01:06Z</time>
      </trkpt>
      <trkpt lat="47.41603" lon="6.50765">
        <ele>384</ele>
        <time>2013-02-21T10:01:11Z</time>
      </trkpt>
      <trkpt lat="47.416" lon="6.50752">
        <ele>381.5</ele>
        <time>2013-02-21T10:01:16Z</time>
      </trkpt>
      <trkpt lat="47.41597" lon="6.50735">
        <ele>383.3</ele>
        <time>2013-02-21T10:01:21Z</time>
      </trkpt>
      <trkpt lat="47.41593" lon="6.5072">
        <ele>385.2</ele>
        <time>2013-02-21T10:01:26Z</time>
      </trkpt>
      <trkpt lat="47.41588" lon="6.50705">
        <ele>383.8</ele>
        <time>2013-02-21T10:01:31Z</time>
      </trkpt>
      <trkpt lat="47.41585" lon="6.5069">
        <ele>383.8</ele>
        <time>2013-02-21T10:01:36Z</time>
      </trkpt>
      <trkpt lat="47.41582" lon="6.50675">
        <ele>383.7</ele>
        <time>2013-02-21T10:01:41Z</time>
      </trkpt>
      <trkpt lat="47.41578" lon="6.5066">
        <ele>385.1</ele>
        <time>2013-02-21T10:01:46Z</time>
      </trkpt>
      <trkpt lat="47.41577" lon="6.50645">
        <ele>383</ele>
        <time>2013-02-21T10:01:51Z</time>
      </trkpt>
      <trkpt lat="47.41575" lon="6.50632">
        <ele>384.1</ele>
        <time>2013-02-21T10:01:56Z</time>
      </trkpt>
      <trkpt lat="47.41573" lon="6.50617">
        <ele>386.5</ele>
        <time>2013-02-21T10:02:01Z</time>
      </trkpt>
      <trkpt lat="47.41572" lon="6.50602">
        <ele>384.7</ele>
        <time>2013-02-21T10:02:06Z</time>
      </trkpt>
      <trkpt lat="47.41572" lon="6.50587">
        <ele>384.1</ele>
        <time>2013-02-21T10:02:11Z</time>
      </trkpt>
      <trkpt lat="47.41572" lon="6.50568">
        <ele>384.6</ele>
        <time>2013-02-21T10:02:16Z</time>
      </trkpt>
      <trkpt lat="47.4157" lon="6.50553">
        <ele>384.6</ele>
        <time>2013-02-21T10:02:21Z</time>
      </trkpt>
      <trkpt lat="47.4157" lon="6.50535">
        <ele>384.4</ele>
        <time>2013-02-21T10:02:26Z</time>
      </trkpt>
      <trkpt lat="47.4157" lon="6.50518">
        <ele>384.3</ele>
        <time>2013-02-21T10:02:31Z</time>
      </trkpt>
      <trkpt lat="47.4157" lon="6.50493">
        <ele>383.6</ele>
        <time>2013-02-21T10:02:36Z</time>
      </trkpt>
      <trkpt lat="47.41572" lon="6.50467">
        <ele>382.7</ele>
        <time>2013-02-21T10:02:41Z</time>
      </trkpt>
      <trkpt lat="47.41573" lon="6.50437">
        <ele>382.1</ele>
        <time>2013-02-21T10:02:46Z</time>
      </trkpt>
      <trkpt lat="47.4158" lon="6.50405">
        <ele>379</ele>
        <time>2013-02-21T10:02:51Z</time>
      </trkpt>
      <trkpt lat="47.41587" lon="6.50377">
        <ele>382</ele>
        <time>2013-02-21T10:02:56Z</time>
      </trkpt>
      <trkpt lat="47.41595" lon="6.50348">
        <ele>381.2</ele>
        <time>2013-02-21T10:03:01Z</time>
      </trkpt>
      <trkpt lat="47.41603" lon="6.50325">
        <ele>381.2</ele>
        <time>2013-02-21T10:03:06Z</time>
      </trkpt>
      <trkpt lat="47.41613" lon="6.50307">
        <ele>382.8</ele>
        <time>2013-02-21T10:03:11Z</time>
      </trkpt>
      <trkpt lat="47.41623" lon="6.50288">
        <ele>381.8</ele>
        <time>2013-02-21T10:03:16Z</time>
      </trkpt>
      <trkpt lat="47.41632" lon="6.50273">
        <ele>381.1</ele>
        <time>2013-02-21T10:03:21Z</time>
      </trkpt>
      <trkpt lat="47.41638" lon="6.5026">
        <ele>382.8</ele>
        <time>2013-02-21T10:03:26Z</time>
      </trkpt>
      <trkpt lat="47.41645" lon="6.50248">
        <ele>382.8</ele>
        <time>2013-02-21T10:03:31Z</time>
      </trkpt>
      <trkpt lat="47.4165" lon="6.50235">
        <ele>382.8</ele>
        <time>2013-02-21T10:03:36Z</time>
      </trkpt>
      <trkpt lat="47.41655" lon="6.50223">
        <ele>384</ele>
        <time>2013-02-21T10:03:41Z</time>
      </trkpt>
      <trkpt lat="47.4166" lon="6.50212">
        <ele>382</ele>
        <time>2013-02-21T10:03:46Z</time>
      </trkpt>
      <trkpt lat="47.41665" lon="6.502">
        <ele>387.7</ele>
        <time>2013-02-21T10:03:51Z</time>
      </trkpt>
      <trkpt lat="47.41668" lon="6.5019">
        <ele>384.5</ele>
        <time>2013-02-21T10:03:56Z</time>
      </trkpt>
      <trkpt lat="47.41672" lon="6.5018">
        <ele>385.8</ele>
        <time>2013-02-21T10:04:01Z</time>
      </trkpt>
      <trkpt lat="47.41672" lon="6.5018">
        <ele>385.6</ele>
        <time>2013-02-21T10:04:06Z</time>
      </trkpt>
      <trkpt lat="47.4167" lon="6.50182">
        <ele>386.4</ele>
        <time>2013-02-21T10:05:46Z</time>
      </trkpt>
      <trkpt lat="47.41677" lon="6.5017">
        <ele>385.6</ele>
        <time>2013-02-21T10:05:51Z</time>
      </trkpt>
      <trkpt lat="47.41688" lon="6.50155">
        <ele>386.7</ele>
        <time>2013-02-21T10:05:56Z</time>
      </trkpt>
      <trkpt lat="47.41697" lon="6.50138">
        <ele>386.4</ele>
        <time>2013-02-21T10:06:01Z</time>
      </trkpt>
      <trkpt lat="47.41707" lon="6.50125">
        <ele>386.8</ele>
        <time>2013-02-21T10:06:06Z</time>
      </trkpt>
      <trkpt lat="47.41715" lon="6.5011">
        <ele>387.2</ele>
        <time>2013-02-21T10:06:11Z</time>
      </trkpt>
      <trkpt lat="47.41725" lon="6.50095">
        <ele>387.5</ele>
        <time>2013-02-21T10:06:16Z</time>
      </trkpt>
      <trkpt lat="47.41735" lon="6.50078">
        <ele>388.3</ele>
        <time>2013-02-21T10:06:21Z</time>
      </trkpt>
      <trkpt lat="47.41743" lon="6.50063">
        <ele>388.3</ele>
        <time>2013-02-21T10:06:26Z</time>
      </trkpt>
      <trkpt lat="47.41752" lon="6.5005">
        <ele>389.2</ele>
        <time>2013-02-21T10:06:31Z</time>
      </trkpt>
      <trkpt lat="47.41762" lon="6.50042">
        <ele>389.5</ele>
        <time>2013-02-21T10:06:36Z</time>
      </trkpt>
      <trkpt lat="47.41775" lon="6.50027">
        <ele>390.6</ele>
        <time>2013-02-21T10:06:41Z</time>
      </trkpt>
      <trkpt lat="47.41788" lon="6.50008">
        <ele>391.6</ele>
        <time>2013-02-21T10:06:46Z</time>
      </trkpt>
      <trkpt lat="47.41798" lon="6.4999">
        <ele>393.6</ele>
        <time>2013-02-21T10:06:51Z</time>
      </trkpt>
      <trkpt lat="47.41803" lon="6.4997">
        <ele>394.7</ele>
        <time>2013-02-21T10:06:56Z</time>
      </trkpt>
      <trkpt lat="47.41807" lon="6.49952">
        <ele>396</ele>
        <time>2013-02-21T10:07:01Z</time>
      </trkpt>
      <trkpt lat="47.4181" lon="6.49932">
        <ele>397.7</ele>
        <time>2013-02-21T10:07:06Z</time>
      </trkpt>
      <trkpt lat="47.41812" lon="6.49917">
        <ele>398.9</ele>
        <time>2013-02-21T10:07:11Z</time>
      </trkpt>
      <trkpt lat="47.41815" lon="6.49903">
        <ele>400.5</ele>
        <time>2013-02-21T10:07:16Z</time>
      </trkpt>
      <trkpt lat="47.41818" lon="6.4989">
        <ele>400.5</ele>
        <time>2013-02-21T10:07:21Z</time>
      </trkpt>
      <trkpt lat="47.41823" lon="6.49877">
        <ele>402.3</ele>
        <time>2013-02-21T10:07:26Z</time>
      </trkpt>
      <trkpt lat="47.41827" lon="6.4987">
        <ele>403.2</ele>
        <time>2013-02-21T10:07:31Z</time>
      </trkpt>
      <trkpt lat="47.41832" lon="6.49862">
        <ele>404.3</ele>
        <time>2013-02-21T10:07:36Z</time>
      </trkpt>
      <trkpt lat="47.41835" lon="6.49853">
        <ele>405.7</ele>
        <time>2013-02-21T10:07:41Z</time>
      </trkpt>
      <trkpt lat="47.41838" lon="6.49843">
        <ele>406.8</ele>
        <time>2013-02-21T10:07:46Z</time>
      </trkpt>
      <trkpt lat="47.41842" lon="6.49835">
        <ele>407.7</ele>
        <time>2013-02-21T10:07:51Z</time>
      </trkpt>
      <trkpt lat="47.41843" lon="6.49825">
        <ele>408.6</ele>
        <time>2013-02-21T10:07:56Z</time>
      </trkpt>
      <trkpt lat="47.41842" lon="6.49813">
        <ele>409.2</ele>
        <time>2013-02-21T10:08:01Z</time>
      </trkpt>
      <trkpt lat="47.4184" lon="6.49805">
        <ele>411</ele>
        <time>2013-02-21T10:08:06Z</time>
      </trkpt>
      <trkpt lat="47.41837" lon="6.49797">
        <ele>411.4</ele>
        <time>2013-02-21T10:08:11Z</time>
      </trkpt>
      <trkpt lat="47.41832" lon="6.4979">
        <ele>412.5</ele>
        <time>2013-02-21T10:08:16Z</time>
      </trkpt>
      <trkpt lat="47.41828" lon="6.4978">
        <ele>413.5</ele>
        <time>2013-02-21T10:08:21Z</time>
      </trkpt>
      <trkpt lat="47.41823" lon="6.49772">
        <ele>414.5</ele>
        <time>2013-02-21T10:08:26Z</time>
      </trkpt>
      <trkpt lat="47.4182" lon="6.49762">
        <ele>414.9</ele>
        <time>2013-02-21T10:08:31Z</time>
      </trkpt>
      <trkpt lat="47.41817" lon="6.49758">
        <ele>416.1</ele>
        <time>2013-02-21T10:08:36Z</time>
      </trkpt>
      <trkpt lat="47.41813" lon="6.49748">
        <ele>416.7</ele>
        <time>2013-02-21T10:08:41Z</time>
      </trkpt>
      <trkpt lat="47.41812" lon="6.49738">
        <ele>417.5</ele>
        <time>2013-02-21T10:08:46Z</time>
      </trkpt>
      <trkpt lat="47.41808" lon="6.49728">
        <ele>418.3</ele>
        <time>2013-02-21T10:08:51Z</time>
      </trkpt>
      <trkpt lat="47.41805" lon="6.4972">
        <ele>419.5</ele>
        <time>2013-02-21T10:08:56Z</time>
      </trkpt>
      <trkpt lat="47.41803" lon="6.4971">
        <ele>420.5</ele>
        <time>2013-02-21T10:09:01Z</time>
      </trkpt>
      <trkpt lat="47.418" lon="6.49698">
        <ele>421</ele>
        <time>2013-02-21T10:09:06Z</time>
      </trkpt>
      <trkpt lat="47.41797" lon="6.49688">
        <ele>421.6</ele>
        <time>2013-02-21T10:09:11Z</time>
      </trkpt>
      <trkpt lat="47.41795" lon="6.4968">
        <ele>422.2</ele>
        <time>2013-02-21T10:09:16Z</time>
      </trkpt>
      <trkpt lat="47.41795" lon="6.49672">
        <ele>422.9</ele>
        <time>2013-02-21T10:09:21Z</time>
      </trkpt>
      <trkpt lat="47.41795" lon="6.49663">
        <ele>423.6</ele>
        <time>2013-02-21T10:09:26Z</time>
      </trkpt>
      <trkpt lat="47.41793" lon="6.49655">
        <ele>424.9</ele>
        <time>2013-02-21T10:09:31Z</time>
      </trkpt>
      <trkpt lat="47.41792" lon="6.49645">
        <ele>425.5</ele>
        <time>2013-02-21T10:09:36Z</time>
      </trkpt>
      <trkpt lat="47.41788" lon="6.49637">
        <ele>427.1</ele>
        <time>2013-02-21T10:09:41Z</time>
      </trkpt>
      <trkpt lat="47.41785" lon="6.49627">
        <ele>427.7</ele>
        <time>2013-02-21T10:09:46Z</time>
      </trkpt>
      <trkpt lat="47.41778" lon="6.4962">
        <ele>428.8</ele>
        <time>2013-02-21T10:09:51Z</time>
      </trkpt>
      <trkpt lat="47.41777" lon="6.49608">
        <ele>429.6</ele>
        <time>2013-02-21T10:09:56Z</time>
      </trkpt>
      <trkpt lat="47.41772" lon="6.496">
        <ele>430.4</ele>
        <time>2013-02-21T10:10:01Z</time>
      </trkpt>
      <trkpt lat="47.4177" lon="6.49588">
        <ele>431.8</ele>
        <time>2013-02-21T10:10:06Z</time>
      </trkpt>
      <trkpt lat="47.41767" lon="6.49582">
        <ele>432.5</ele>
        <time>2013-02-21T10:10:11Z</time>
      </trkpt>
      <trkpt lat="47.41763" lon="6.49573">
        <ele>433.2</ele>
        <time>2013-02-21T10:10:16Z</time>
      </trkpt>
      <trkpt lat="47.41762" lon="6.49563">
        <ele>433.6</ele>
        <time>2013-02-21T10:10:21Z</time>
      </trkpt>
      <trkpt lat="47.4176" lon="6.49553">
        <ele>434</ele>
        <time>2013-02-21T10:10:26Z</time>
      </trkpt>
      <trkpt lat="47.4176" lon="6.49543">
        <ele>435.1</ele>
        <time>2013-02-21T10:10:31Z</time>
      </trkpt>
      <trkpt lat="47.41758" lon="6.49533">
        <ele>435.8</ele>
        <time>2013-02-21T10:10:36Z</time>
      </trkpt>
      <trkpt lat="47.41762" lon="6.49522">
        <ele>436.3</ele>
        <time>2013-02-21T10:10:41Z</time>
      </trkpt>
      <trkpt lat="47.41762" lon="6.49512">
        <ele>437.6</ele>
        <time>2013-02-21T10:10:46Z</time>
      </trkpt>
      <trkpt lat="47.41762" lon="6.495">
        <ele>438.7</ele>
        <time>2013-02-21T10:10:51Z</time>
      </trkpt>
      <trkpt lat="47.41763" lon="6.49488">
        <ele>439.6</ele>
        <time>2013-02-21T10:10:56Z</time>
      </trkpt>
      <trkpt lat="47.41763" lon="6.49477">
        <ele>440.3</ele>
        <time>2013-02-21T10:11:01Z</time>
      </trkpt>
      <trkpt lat="47.41763" lon="6.49467">
        <ele>441</ele>
        <time>2013-02-21T10:11:06Z</time>
      </trkpt>
      <trkpt lat="47.41763" lon="6.49455">
        <ele>441.6</ele>
        <time>2013-02-21T10:11:11Z</time>
      </trkpt>
      <trkpt lat="47.41763" lon="6.49445">
        <ele>441.5</ele>
        <time>2013-02-21T10:11:16Z</time>
      </trkpt>
      <trkpt lat="47.41765" lon="6.49433">
        <ele>442.1</ele>
        <time>2013-02-21T10:11:21Z</time>
      </trkpt>
      <trkpt lat="47.41767" lon="6.49423">
        <ele>442.2</ele>
        <time>2013-02-21T10:11:26Z</time>
      </trkpt>
      <trkpt lat="47.41767" lon="6.49413">
        <ele>443.1</ele>
        <time>2013-02-21T10:11:31Z</time>
      </trkpt>
      <trkpt lat="47.4177" lon="6.49402">
        <ele>443</ele>
        <time>2013-02-21T10:11:36Z</time>
      </trkpt>
      <trkpt lat="47.41775" lon="6.49392">
        <ele>442.5</ele>
        <time>2013-02-21T10:11:41Z</time>
      </trkpt>
      <trkpt lat="47.41777" lon="6.49382">
        <ele>443.2</ele>
        <time>2013-02-21T10:11:46Z</time>
      </trkpt>
      <trkpt lat="47.41778" lon="6.4937">
        <ele>443.5</ele>
        <time>2013-02-21T10:11:51Z</time>
      </trkpt>
      <trkpt lat="47.4178" lon="6.49357">
        <ele>443.7</ele>
        <time>2013-02-21T10:11:56Z</time>
      </trkpt>
      <trkpt lat="47.41783" lon="6.49343">
        <ele>443.5</ele>
        <time>2013-02-21T10:12:01Z</time>
      </trkpt>
      <trkpt lat="47.41785" lon="6.4933">
        <ele>444.2</ele>
        <time>2013-02-21T10:12:06Z</time>
      </trkpt>
      <trkpt lat="47.4179" lon="6.4931">
        <ele>443.2</ele>
        <time>2013-02-21T10:12:11Z</time>
      </trkpt>
      <trkpt lat="47.41793" lon="6.49292">
        <ele>443.4</ele>
        <time>2013-02-21T10:12:16Z</time>
      </trkpt>
      <trkpt lat="47.41795" lon="6.49275">
        <ele>442.7</ele>
        <time>2013-02-21T10:12:21Z</time>
      </trkpt>
      <trkpt lat="47.41803" lon="6.49255">
        <ele>443.3</ele>
        <time>2013-02-21T10:12:26Z</time>
      </trkpt>
      <trkpt lat="47.41808" lon="6.49238">
        <ele>443</ele>
        <time>2013-02-21T10:12:31Z</time>
      </trkpt>
      <trkpt lat="47.4181" lon="6.49227">
        <ele>444.2</ele>
        <time>2013-02-21T10:12:36Z</time>
      </trkpt>
      <trkpt lat="47.41803" lon="6.49222">
        <ele>442.1</ele>
        <time>2013-02-21T10:12:41Z</time>
      </trkpt>
      <trkpt lat="47.41803" lon="6.4922">
        <ele>442.9</ele>
        <time>2013-02-21T10:12:46Z</time>
      </trkpt>
      <trkpt lat="47.41798" lon="6.4922">
        <ele>442.2</ele>
        <time>2013-02-21T10:12:51Z</time>
      </trkpt>
      <trkpt lat="47.41798" lon="6.49222">
        <ele>442.9</ele>
        <time>2013-02-21T10:13:31Z</time>
      </trkpt>
      <trkpt lat="47.41785" lon="6.49237">
        <ele>441.4</ele>
        <time>2013-02-21T10:13:36Z</time>
      </trkpt>
      <trkpt lat="47.41768" lon="6.49258">
        <ele>440</ele>
        <time>2013-02-21T10:13:41Z</time>
      </trkpt>
      <trkpt lat="47.41745" lon="6.4928">
        <ele>439.3</ele>
        <time>2013-02-21T10:13:46Z</time>
      </trkpt>
      <trkpt lat="47.41725" lon="6.49307">
        <ele>438.4</ele>
        <time>2013-02-21T10:13:51Z</time>
      </trkpt>
      <trkpt lat="47.417" lon="6.49328">
        <ele>436.4</ele>
        <time>2013-02-21T10:13:56Z</time>
      </trkpt>
      <trkpt lat="47.41673" lon="6.49355">
        <ele>433.2</ele>
        <time>2013-02-21T10:14:01Z</time>
      </trkpt>
      <trkpt lat="47.4165" lon="6.49372">
        <ele>433.6</ele>
        <time>2013-02-21T10:14:06Z</time>
      </trkpt>
      <trkpt lat="47.41628" lon="6.49387">
        <ele>433.5</ele>
        <time>2013-02-21T10:14:11Z</time>
      </trkpt>
      <trkpt lat="47.4161" lon="6.494">
        <ele>434.5</ele>
        <time>2013-02-21T10:14:16Z</time>
      </trkpt>
      <trkpt lat="47.41595" lon="6.49412">
        <ele>435.4</ele>
        <time>2013-02-21T10:14:21Z</time>
      </trkpt>
      <trkpt lat="47.41585" lon="6.4942">
        <ele>435.4</ele>
        <time>2013-02-21T10:14:26Z</time>
      </trkpt>
      <trkpt lat="47.4158" lon="6.49425">
        <ele>435.7</ele>
        <time>2013-02-21T10:14:31Z</time>
      </trkpt>
      <trkpt lat="47.41575" lon="6.49428">
        <ele>435.1</ele>
        <time>2013-02-21T10:14:36Z</time>
      </trkpt>
      <trkpt lat="47.4157" lon="6.49435">
        <ele>434</ele>
        <time>2013-02-21T10:14:41Z</time>
      </trkpt>
      <trkpt lat="47.41563" lon="6.49445">
        <ele>433.9</ele>
        <time>2013-02-21T10:14:46Z</time>
      </trkpt>
      <trkpt lat="47.41557" lon="6.49455">
        <ele>433.6</ele>
        <time>2013-02-21T10:14:51Z</time>
      </trkpt>
      <trkpt lat="47.41548" lon="6.49465">
        <ele>434.1</ele>
        <time>2013-02-21T10:14:56Z</time>
      </trkpt>
      <trkpt lat="47.41545" lon="6.49468">
        <ele>434.1</ele>
        <time>2013-02-21T10:15:01Z</time>
      </trkpt>
      <trkpt lat="47.41547" lon="6.49472">
        <ele>433.9</ele>
        <time>2013-02-21T10:15:06Z</time>
      </trkpt>
      <trkpt lat="47.41547" lon="6.49482">
        <ele>434.4</ele>
        <time>2013-02-21T10:15:11Z</time>
      </trkpt>
      <trkpt lat="47.41547" lon="6.49495">
        <ele>434.4</ele>
        <time>2013-02-21T10:15:16Z</time>
      </trkpt>
      <trkpt lat="47.41547" lon="6.49488">
        <ele>434.4</ele>
        <time>2013-02-21T10:15:21Z</time>
      </trkpt>
      <trkpt lat="47.41545" lon="6.49478">
        <ele>434.1</ele>
        <time>2013-02-21T10:15:26Z</time>
      </trkpt>
      <trkpt lat="47.41545" lon="6.49468">
        <ele>434.1</ele>
        <time>2013-02-21T10:15:31Z</time>
      </trkpt>
      <trkpt lat="47.41545" lon="6.49468">
        <ele>433.9</ele>
        <time>2013-02-21T10:15:36Z</time>
      </trkpt>
      <trkpt lat="47.41545" lon="6.49472">
        <ele>434.6</ele>
        <time>2013-02-21T10:15:41Z</time>
      </trkpt>
      <trkpt lat="47.41547" lon="6.4948">
        <ele>434.4</ele>
        <time>2013-02-21T10:15:46Z</time>
      </trkpt>
      <trkpt lat="47.41548" lon="6.49498">
        <ele>433.7</ele>
        <time>2013-02-21T10:15:51Z</time>
      </trkpt>
      <trkpt lat="47.41553" lon="6.49513">
        <ele>435</ele>
        <time>2013-02-21T10:15:56Z</time>
      </trkpt>
      <trkpt lat="47.41558" lon="6.49528">
        <ele>434.4</ele>
        <time>2013-02-21T10:16:01Z</time>
      </trkpt>
      <trkpt lat="47.41565" lon="6.49542">
        <ele>432.8</ele>
        <time>2013-02-21T10:16:06Z</time>
      </trkpt>
      <trkpt lat="47.41572" lon="6.49555">
        <ele>433.9</ele>
        <time>2013-02-21T10:16:11Z</time>
      </trkpt>
      <trkpt lat="47.41577" lon="6.49567">
        <ele>434.5</ele>
        <time>2013-02-21T10:16:16Z</time>
      </trkpt>
      <trkpt lat="47.4158" lon="6.49577">
        <ele>435.6</ele>
        <time>2013-02-21T10:16:21Z</time>
      </trkpt>
      <trkpt lat="47.4158" lon="6.49577">
        <ele>436.3</ele>
        <time>2013-02-21T10:16:26Z</time>
      </trkpt>
      <trkpt lat="47.4158" lon="6.4958">
        <ele>435.2</ele>
        <time>2013-02-21T10:16:36Z</time>
      </trkpt>
      <trkpt lat="47.41585" lon="6.4959">
        <ele>434.6</ele>
        <time>2013-02-21T10:16:41Z</time>
      </trkpt>
      <trkpt lat="47.41593" lon="6.49603">
        <ele>433.6</ele>
        <time>2013-02-21T10:16:46Z</time>
      </trkpt>
      <trkpt lat="47.416" lon="6.4962">
        <ele>433.2</ele>
        <time>2013-02-21T10:16:51Z</time>
      </trkpt>
      <trkpt lat="47.41607" lon="6.49633">
        <ele>433.7</ele>
        <time>2013-02-21T10:16:56Z</time>
      </trkpt>
      <trkpt lat="47.41613" lon="6.49645">
        <ele>434.1</ele>
        <time>2013-02-21T10:17:01Z</time>
      </trkpt>
      <trkpt lat="47.41622" lon="6.4966">
        <ele>432.6</ele>
        <time>2013-02-21T10:17:06Z</time>
      </trkpt>
      <trkpt lat="47.41627" lon="6.49673">
        <ele>433.1</ele>
        <time>2013-02-21T10:17:11Z</time>
      </trkpt>
      <trkpt lat="47.41633" lon="6.49692">
        <ele>431.6</ele>
        <time>2013-02-21T10:17:16Z</time>
      </trkpt>
      <trkpt lat="47.41642" lon="6.49708">
        <ele>430.9</ele>
        <time>2013-02-21T10:17:21Z</time>
      </trkpt>
      <trkpt lat="47.41647" lon="6.49722">
        <ele>430.9</ele>
        <time>2013-02-21T10:17:26Z</time>
      </trkpt>
      <trkpt lat="47.41648" lon="6.4973">
        <ele>430.7</ele>
        <time>2013-02-21T10:17:31Z</time>
      </trkpt>
      <trkpt lat="47.4165" lon="6.49737">
        <ele>430.4</ele>
        <time>2013-02-21T10:17:36Z</time>
      </trkpt>
      <trkpt lat="47.4165" lon="6.4974">
        <ele>431</ele>
        <time>2013-02-21T10:17:41Z</time>
      </trkpt>
      <trkpt lat="47.4165" lon="6.49743">
        <ele>430.1</ele>
        <time>2013-02-21T10:17:46Z</time>
      </trkpt>
      <trkpt lat="47.4165" lon="6.49747">
        <ele>428.9</ele>
        <time>2013-02-21T10:17:51Z</time>
      </trkpt>
      <trkpt lat="47.4165" lon="6.49748">
        <ele>428.3</ele>
        <time>2013-02-21T10:17:56Z</time>
      </trkpt>
      <trkpt lat="47.4165" lon="6.49755">
        <ele>428</ele>
        <time>2013-02-21T10:18:01Z</time>
      </trkpt>
      <trkpt lat="47.4165" lon="6.49763">
        <ele>427.2</ele>
        <time>2013-02-21T10:18:06Z</time>
      </trkpt>
      <trkpt lat="47.4165" lon="6.49768">
        <ele>427</ele>
        <time>2013-02-21T10:18:11Z</time>
      </trkpt>
      <trkpt lat="47.4165" lon="6.49775">
        <ele>426.1</ele>
        <time>2013-02-21T10:18:16Z</time>
      </trkpt>
      <trkpt lat="47.4165" lon="6.49783">
        <ele>425.7</ele>
        <time>2013-02-21T10:18:21Z</time>
      </trkpt>
      <trkpt lat="47.41648" lon="6.49788">
        <ele>425.6</ele>
        <time>2013-02-21T10:18:26Z</time>
      </trkpt>
      <trkpt lat="47.41648" lon="6.49793">
        <ele>425</ele>
        <time>2013-02-21T10:18:36Z</time>
      </trkpt>
      <trkpt lat="47.41647" lon="6.49797">
        <ele>424.1</ele>
        <time>2013-02-21T10:18:41Z</time>
      </trkpt>
      <trkpt lat="47.41643" lon="6.49812">
        <ele>423.1</ele>
        <time>2013-02-21T10:19:06Z</time>
      </trkpt>
      <trkpt lat="47.4164" lon="6.49815">
        <ele>423.2</ele>
        <time>2013-02-21T10:19:11Z</time>
      </trkpt>
      <trkpt lat="47.4164" lon="6.49815">
        <ele>423.6</ele>
        <time>2013-02-21T10:19:16Z</time>
      </trkpt>
      <trkpt lat="47.41633" lon="6.49827">
        <ele>423.6</ele>
        <time>2013-02-21T10:19:21Z</time>
      </trkpt>
      <trkpt lat="47.4163" lon="6.49838">
        <ele>421.6</ele>
        <time>2013-02-21T10:19:26Z</time>
      </trkpt>
      <trkpt lat="47.41625" lon="6.4985">
        <ele>420.2</ele>
        <time>2013-02-21T10:19:31Z</time>
      </trkpt>
      <trkpt lat="47.41618" lon="6.49863">
        <ele>418.8</ele>
        <time>2013-02-21T10:19:36Z</time>
      </trkpt>
      <trkpt lat="47.41617" lon="6.49863">
        <ele>419.4</ele>
        <time>2013-02-21T10:19:41Z</time>
      </trkpt>
      <trkpt lat="47.4162" lon="6.4986">
        <ele>419.6</ele>
        <time>2013-02-21T10:19:46Z</time>
      </trkpt>
      <trkpt lat="47.41623" lon="6.49855">
        <ele>420.1</ele>
        <time>2013-02-21T10:19:51Z</time>
      </trkpt>
      <trkpt lat="47.41623" lon="6.49852">
        <ele>420.4</ele>
        <time>2013-02-21T10:19:56Z</time>
      </trkpt>
      <trkpt lat="47.41623" lon="6.49853">
        <ele>420</ele>
        <time>2013-02-21T10:20:01Z</time>
      </trkpt>
      <trkpt lat="47.41617" lon="6.49863">
        <ele>419</ele>
        <time>2013-02-21T10:20:06Z</time>
      </trkpt>
      <trkpt lat="47.41607" lon="6.49872">
        <ele>418.7</ele>
        <time>2013-02-21T10:20:11Z</time>
      </trkpt>
      <trkpt lat="47.41597" lon="6.4988">
        <ele>419.1</ele>
        <time>2013-02-21T10:20:16Z</time>
      </trkpt>
      <trkpt lat="47.41585" lon="6.49888">
        <ele>418.6</ele>
        <time>2013-02-21T10:20:21Z</time>
      </trkpt>
      <trkpt lat="47.41578" lon="6.49897">
        <ele>418.6</ele>
        <time>2013-02-21T10:20:26Z</time>
      </trkpt>
      <trkpt lat="47.41577" lon="6.49898">
        <ele>418.1</ele>
        <time>2013-02-21T10:20:31Z</time>
      </trkpt>
      <trkpt lat="47.41575" lon="6.49898">
        <ele>417.3</ele>
        <time>2013-02-21T10:20:36Z</time>
      </trkpt>
      <trkpt lat="47.41572" lon="6.49903">
        <ele>416</ele>
        <time>2013-02-21T10:20:51Z</time>
      </trkpt>
      <trkpt lat="47.41568" lon="6.49908">
        <ele>417.5</ele>
        <time>2013-02-21T10:20:56Z</time>
      </trkpt>
      <trkpt lat="47.41563" lon="6.49912">
        <ele>416.7</ele>
        <time>2013-02-21T10:21:01Z</time>
      </trkpt>
      <trkpt lat="47.41557" lon="6.49913">
        <ele>417.6</ele>
        <time>2013-02-21T10:21:06Z</time>
      </trkpt>
      <trkpt lat="47.4155" lon="6.49915">
        <ele>417.1</ele>
        <time>2013-02-21T10:21:11Z</time>
      </trkpt>
      <trkpt lat="47.41545" lon="6.49918">
        <ele>417.6</ele>
        <time>2013-02-21T10:21:16Z</time>
      </trkpt>
      <trkpt lat="47.41538" lon="6.4992">
        <ele>417.6</ele>
        <time>2013-02-21T10:21:21Z</time>
      </trkpt>
      <trkpt lat="47.41533" lon="6.49923">
        <ele>417.2</ele>
        <time>2013-02-21T10:21:26Z</time>
      </trkpt>
      <trkpt lat="47.41528" lon="6.49928">
        <ele>417</ele>
        <time>2013-02-21T10:21:31Z</time>
      </trkpt>
      <trkpt lat="47.41522" lon="6.49933">
        <ele>416.2</ele>
        <time>2013-02-21T10:21:36Z</time>
      </trkpt>
      <trkpt lat="47.41512" lon="6.4994">
        <ele>415.7</ele>
        <time>2013-02-21T10:21:41Z</time>
      </trkpt>
      <trkpt lat="47.41503" lon="6.49947">
        <ele>414.8</ele>
        <time>2013-02-21T10:21:46Z</time>
      </trkpt>
      <trkpt lat="47.41495" lon="6.49952">
        <ele>414</ele>
        <time>2013-02-21T10:21:51Z</time>
      </trkpt>
      <trkpt lat="47.41487" lon="6.49958">
        <ele>413.5</ele>
        <time>2013-02-21T10:21:56Z</time>
      </trkpt>
      <trkpt lat="47.4148" lon="6.49963">
        <ele>413.5</ele>
        <time>2013-02-21T10:22:01Z</time>
      </trkpt>
      <trkpt lat="47.41472" lon="6.49967">
        <ele>411.9</ele>
        <time>2013-02-21T10:22:06Z</time>
      </trkpt>
      <trkpt lat="47.41463" lon="6.49972">
        <ele>411.5</ele>
        <time>2013-02-21T10:22:11Z</time>
      </trkpt>
      <trkpt lat="47.41457" lon="6.49972">
        <ele>411.1</ele>
        <time>2013-02-21T10:22:16Z</time>
      </trkpt>
      <trkpt lat="47.41448" lon="6.4997">
        <ele>411</ele>
        <time>2013-02-21T10:22:21Z</time>
      </trkpt>
      <trkpt lat="47.41445" lon="6.49968">
        <ele>411.1</ele>
        <time>2013-02-21T10:22:26Z</time>
      </trkpt>
      <trkpt lat="47.41443" lon="6.49967">
        <ele>411.6</ele>
        <time>2013-02-21T10:22:36Z</time>
      </trkpt>
      <trkpt lat="47.41438" lon="6.49973">
        <ele>410.5</ele>
        <time>2013-02-21T10:22:41Z</time>
      </trkpt>
      <trkpt lat="47.4143" lon="6.4998">
        <ele>409.1</ele>
        <time>2013-02-21T10:22:46Z</time>
      </trkpt>
      <trkpt lat="47.4142" lon="6.49998">
        <ele>407.6</ele>
        <time>2013-02-21T10:22:51Z</time>
      </trkpt>
      <trkpt lat="47.41405" lon="6.50022">
        <ele>406.3</ele>
        <time>2013-02-21T10:22:56Z</time>
      </trkpt>
      <trkpt lat="47.41382" lon="6.50035">
        <ele>404.9</ele>
        <time>2013-02-21T10:23:01Z</time>
      </trkpt>
      <trkpt lat="47.41353" lon="6.50013">
        <ele>401.5</ele>
        <time>2013-02-21T10:23:06Z</time>
      </trkpt>
      <trkpt lat="47.41332" lon="6.49968">
        <ele>396.7</ele>
        <time>2013-02-21T10:23:11Z</time>
      </trkpt>
      <trkpt lat="47.41313" lon="6.49932">
        <ele>397.1</ele>
        <time>2013-02-21T10:23:16Z</time>
      </trkpt>
      <trkpt lat="47.413" lon="6.49902">
        <ele>397.7</ele>
        <time>2013-02-21T10:23:21Z</time>
      </trkpt>
      <trkpt lat="47.41292" lon="6.49883">
        <ele>397.9</ele>
        <time>2013-02-21T10:23:26Z</time>
      </trkpt>
      <trkpt lat="47.41283" lon="6.49858">
        <ele>397.9</ele>
        <time>2013-02-21T10:23:31Z</time>
      </trkpt>
      <trkpt lat="47.41277" lon="6.49833">
        <ele>398.7</ele>
        <time>2013-02-21T10:23:36Z</time>
      </trkpt>
      <trkpt lat="47.4127" lon="6.49808">
        <ele>398.4</ele>
        <time>2013-02-21T10:23:41Z</time>
      </trkpt>
      <trkpt lat="47.41262" lon="6.49785">
        <ele>398</ele>
        <time>2013-02-21T10:23:46Z</time>
      </trkpt>
      <trkpt lat="47.41257" lon="6.4976">
        <ele>398</ele>
        <time>2013-02-21T10:23:51Z</time>
      </trkpt>
      <trkpt lat="47.41252" lon="6.49738">
        <ele>397.6</ele>
        <time>2013-02-21T10:23:56Z</time>
      </trkpt>
      <trkpt lat="47.41247" lon="6.49717">
        <ele>397.1</ele>
        <time>2013-02-21T10:24:01Z</time>
      </trkpt>
      <trkpt lat="47.4124" lon="6.49693">
        <ele>397.8</ele>
        <time>2013-02-21T10:24:06Z</time>
      </trkpt>
      <trkpt lat="47.41235" lon="6.49672">
        <ele>397</ele>
        <time>2013-02-21T10:24:11Z</time>
      </trkpt>
      <trkpt lat="47.4123" lon="6.49652">
        <ele>396.3</ele>
        <time>2013-02-21T10:24:16Z</time>
      </trkpt>
      <trkpt lat="47.41225" lon="6.49633">
        <ele>396.4</ele>
        <time>2013-02-21T10:24:21Z</time>
      </trkpt>
      <trkpt lat="47.41205" lon="6.49628">
        <ele>393</ele>
        <time>2013-02-21T10:24:26Z</time>
      </trkpt>
      <trkpt lat="47.41177" lon="6.49652">
        <ele>386</ele>
        <time>2013-02-21T10:24:31Z</time>
      </trkpt>
      <trkpt lat="47.41148" lon="6.49677">
        <ele>384.5</ele>
        <time>2013-02-21T10:24:36Z</time>
      </trkpt>
      <trkpt lat="47.41127" lon="6.497">
        <ele>380.7</ele>
        <time>2013-02-21T10:24:41Z</time>
      </trkpt>
      <trkpt lat="47.41108" lon="6.49718">
        <ele>379.8</ele>
        <time>2013-02-21T10:24:46Z</time>
      </trkpt>
      <trkpt lat="47.41092" lon="6.49735">
        <ele>379.9</ele>
        <time>2013-02-21T10:24:51Z</time>
      </trkpt>
      <trkpt lat="47.41077" lon="6.49752">
        <ele>379.9</ele>
        <time>2013-02-21T10:24:56Z</time>
      </trkpt>
      <trkpt lat="47.4106" lon="6.4977">
        <ele>377.6</ele>
        <time>2013-02-21T10:25:01Z</time>
      </trkpt>
      <trkpt lat="47.41045" lon="6.49788">
        <ele>378.3</ele>
        <time>2013-02-21T10:25:06Z</time>
      </trkpt>
      <trkpt lat="47.41028" lon="6.49817">
        <ele>378.1</ele>
        <time>2013-02-21T10:25:11Z</time>
      </trkpt>
      <trkpt lat="47.41012" lon="6.49848">
        <ele>375.4</ele>
        <time>2013-02-21T10:25:16Z</time>
      </trkpt>
      <trkpt lat="47.40998" lon="6.49873">
        <ele>372.7</ele>
        <time>2013-02-21T10:25:21Z</time>
      </trkpt>
      <trkpt lat="47.40988" lon="6.49893">
        <ele>374.7</ele>
        <time>2013-02-21T10:25:26Z</time>
      </trkpt>
      <trkpt lat="47.40977" lon="6.49915">
        <ele>373.6</ele>
        <time>2013-02-21T10:25:31Z</time>
      </trkpt>
      <trkpt lat="47.40965" lon="6.4994">
        <ele>372.2</ele>
        <time>2013-02-21T10:25:36Z</time>
      </trkpt>
      <trkpt lat="47.40955" lon="6.4996">
        <ele>372.7</ele>
        <time>2013-02-21T10:25:41Z</time>
      </trkpt>
      <trkpt lat="47.40945" lon="6.49978">
        <ele>371.4</ele>
        <time>2013-02-21T10:25:46Z</time>
      </trkpt>
      <trkpt lat="47.40937" lon="6.49995">
        <ele>371.6</ele>
        <time>2013-02-21T10:25:51Z</time>
      </trkpt>
      <trkpt lat="47.40927" lon="6.50012">
        <ele>369.8</ele>
        <time>2013-02-21T10:25:56Z</time>
      </trkpt>
      <trkpt lat="47.40927" lon="6.50043">
        <ele>365.6</ele>
        <time>2013-02-21T10:26:01Z</time>
      </trkpt>
      <trkpt lat="47.40927" lon="6.50083">
        <ele>364</ele>
        <time>2013-02-21T10:26:06Z</time>
      </trkpt>
      <trkpt lat="47.40915" lon="6.50107">
        <ele>364.7</ele>
        <time>2013-02-21T10:26:11Z</time>
      </trkpt>
      <trkpt lat="47.40905" lon="6.50118">
        <ele>363.7</ele>
        <time>2013-02-21T10:26:16Z</time>
      </trkpt>
      <trkpt lat="47.40887" lon="6.50118">
        <ele>364.1</ele>
        <time>2013-02-21T10:26:21Z</time>
      </trkpt>
      <trkpt lat="47.40867" lon="6.50118">
        <ele>364.4</ele>
        <time>2013-02-21T10:26:26Z</time>
      </trkpt>
      <trkpt lat="47.40848" lon="6.50123">
        <ele>365.8</ele>
        <time>2013-02-21T10:26:31Z</time>
      </trkpt>
      <trkpt lat="47.40832" lon="6.5013">
        <ele>365.6</ele>
        <time>2013-02-21T10:26:36Z</time>
      </trkpt>
      <trkpt lat="47.4082" lon="6.50133">
        <ele>366.3</ele>
        <time>2013-02-21T10:26:41Z</time>
      </trkpt>
    </trkseg>
  </trk>
  <rte>
      <rtept lat="47.40637" lon="6.50413">
        <ele>311</ele>
      </rtept>
      <rtept lat="47.4082" lon="6.50133">
        <ele>313.4</ele>
      </rtept>
    </rte>
</gpx>